<?xml version="1.0" encoding="UTF-8" standalone="no" ?>
<gpx xmlns="http://www.topografix.com/GPX/1/1" xmlns:xsi="http://www.w3.org/2001/XMLSchema-instance" xsi:schemaLocation="http://www.topografix.com/GPX/1/1 http://www.topografix.com/GPX/1/1/gpx.xsd" version="1.1" creator="VisuGPX - https://www.visugpx.com">
  <metadata>
    <name>Gan Bosdarros</name>
    <desc><![CDATA[Une randonnée à moitié dans les bois pentus, et la moitié sur des chemins tranquilles mais goudronnés. C\'est une boucle de 7,5km, avec un dénivelé de 200m.]]></desc>
  </metadata>
  <trk>
    <name><![CDATA[Tracé actuel: 11 SEP 2012 14:20]]></name>
    <trkseg>
      <trkpt lat="43.21672" lon="-0.38135">
        <ele>187.59</ele>
        <time>2012-09-11T12:20:02Z</time>
      </trkpt>
      <trkpt lat="43.21662" lon="-0.38139">
        <ele>191.92</ele>
        <time>2012-09-11T12:20:21Z</time>
      </trkpt>
      <trkpt lat="43.2165" lon="-0.38144">
        <ele>199.13</ele>
        <time>2012-09-11T12:20:52Z</time>
      </trkpt>
      <trkpt lat="43.21641" lon="-0.38148">
        <ele>199.61</ele>
        <time>2012-09-11T12:21:01Z</time>
      </trkpt>
      <trkpt lat="43.21632" lon="-0.38152">
        <ele>201.05</ele>
        <time>2012-09-11T12:21:10Z</time>
      </trkpt>
      <trkpt lat="43.21622" lon="-0.38151">
        <ele>201.53</ele>
        <time>2012-09-11T12:21:18Z</time>
      </trkpt>
      <trkpt lat="43.21612" lon="-0.38151">
        <ele>201.53</ele>
        <time>2012-09-11T12:21:26Z</time>
      </trkpt>
      <trkpt lat="43.21603" lon="-0.38151">
        <ele>201.53</ele>
        <time>2012-09-11T12:21:34Z</time>
      </trkpt>
      <trkpt lat="43.21593" lon="-0.38149">
        <ele>201.53</ele>
        <time>2012-09-11T12:21:43Z</time>
      </trkpt>
      <trkpt lat="43.21585" lon="-0.3814">
        <ele>201.53</ele>
        <time>2012-09-11T12:22:06Z</time>
      </trkpt>
      <trkpt lat="43.21586" lon="-0.38127">
        <ele>201.53</ele>
        <time>2012-09-11T12:22:17Z</time>
      </trkpt>
      <trkpt lat="43.21588" lon="-0.38115">
        <ele>201.05</ele>
        <time>2012-09-11T12:22:27Z</time>
      </trkpt>
      <trkpt lat="43.2159" lon="-0.38106">
        <ele>201.53</ele>
        <time>2012-09-11T12:28:39Z</time>
      </trkpt>
      <trkpt lat="43.21593" lon="-0.38092">
        <ele>201.53</ele>
        <time>2012-09-11T12:28:49Z</time>
      </trkpt>
      <trkpt lat="43.21595" lon="-0.3808">
        <ele>201.53</ele>
        <time>2012-09-11T12:28:58Z</time>
      </trkpt>
      <trkpt lat="43.21598" lon="-0.38067">
        <ele>201.53</ele>
        <time>2012-09-11T12:29:07Z</time>
      </trkpt>
      <trkpt lat="43.21602" lon="-0.38054">
        <ele>201.53</ele>
        <time>2012-09-11T12:29:16Z</time>
      </trkpt>
      <trkpt lat="43.21605" lon="-0.38042">
        <ele>201.53</ele>
        <time>2012-09-11T12:29:25Z</time>
      </trkpt>
      <trkpt lat="43.21609" lon="-0.3803">
        <ele>201.53</ele>
        <time>2012-09-11T12:29:33Z</time>
      </trkpt>
      <trkpt lat="43.21614" lon="-0.38017">
        <ele>201.53</ele>
        <time>2012-09-11T12:29:42Z</time>
      </trkpt>
      <trkpt lat="43.21617" lon="-0.38004">
        <ele>201.53</ele>
        <time>2012-09-11T12:29:51Z</time>
      </trkpt>
      <trkpt lat="43.2162" lon="-0.37991">
        <ele>201.05</ele>
        <time>2012-09-11T12:30:00Z</time>
      </trkpt>
      <trkpt lat="43.21622" lon="-0.37978">
        <ele>201.53</ele>
        <time>2012-09-11T12:30:09Z</time>
      </trkpt>
      <trkpt lat="43.21623" lon="-0.37965">
        <ele>202.01</ele>
        <time>2012-09-11T12:30:19Z</time>
      </trkpt>
      <trkpt lat="43.21625" lon="-0.37953">
        <ele>202.01</ele>
        <time>2012-09-11T12:30:28Z</time>
      </trkpt>
      <trkpt lat="43.2163" lon="-0.3794">
        <ele>202.49</ele>
        <time>2012-09-11T12:30:38Z</time>
      </trkpt>
      <trkpt lat="43.21635" lon="-0.37927">
        <ele>202.49</ele>
        <time>2012-09-11T12:30:48Z</time>
      </trkpt>
      <trkpt lat="43.21638" lon="-0.37913">
        <ele>202.49</ele>
        <time>2012-09-11T12:31:00Z</time>
      </trkpt>
      <trkpt lat="43.21642" lon="-0.37898">
        <ele>203.46</ele>
        <time>2012-09-11T12:31:12Z</time>
      </trkpt>
      <trkpt lat="43.21644" lon="-0.37882">
        <ele>203.46</ele>
        <time>2012-09-11T12:31:22Z</time>
      </trkpt>
      <trkpt lat="43.21641" lon="-0.37864">
        <ele>203.94</ele>
        <time>2012-09-11T12:31:33Z</time>
      </trkpt>
      <trkpt lat="43.21639" lon="-0.37845">
        <ele>204.42</ele>
        <time>2012-09-11T12:31:43Z</time>
      </trkpt>
      <trkpt lat="43.21635" lon="-0.37831">
        <ele>204.42</ele>
        <time>2012-09-11T12:31:54Z</time>
      </trkpt>
      <trkpt lat="43.21631" lon="-0.37818">
        <ele>204.9</ele>
        <time>2012-09-11T12:32:05Z</time>
      </trkpt>
      <trkpt lat="43.21627" lon="-0.378">
        <ele>204.9</ele>
        <time>2012-09-11T12:32:21Z</time>
      </trkpt>
      <trkpt lat="43.21627" lon="-0.37786">
        <ele>204.9</ele>
        <time>2012-09-11T12:32:28Z</time>
      </trkpt>
      <trkpt lat="43.21626" lon="-0.37768">
        <ele>205.38</ele>
        <time>2012-09-11T12:32:37Z</time>
      </trkpt>
      <trkpt lat="43.21629" lon="-0.37757">
        <ele>204.9</ele>
        <time>2012-09-11T12:32:46Z</time>
      </trkpt>
      <trkpt lat="43.2163" lon="-0.37746">
        <ele>204.9</ele>
        <time>2012-09-11T12:32:54Z</time>
      </trkpt>
      <trkpt lat="43.21629" lon="-0.37733">
        <ele>205.38</ele>
        <time>2012-09-11T12:33:03Z</time>
      </trkpt>
      <trkpt lat="43.21629" lon="-0.37719">
        <ele>205.86</ele>
        <time>2012-09-11T12:33:14Z</time>
      </trkpt>
      <trkpt lat="43.21631" lon="-0.37704">
        <ele>206.34</ele>
        <time>2012-09-11T12:33:24Z</time>
      </trkpt>
      <trkpt lat="43.2163" lon="-0.37688">
        <ele>206.34</ele>
        <time>2012-09-11T12:33:33Z</time>
      </trkpt>
      <trkpt lat="43.21632" lon="-0.37673">
        <ele>206.82</ele>
        <time>2012-09-11T12:33:42Z</time>
      </trkpt>
      <trkpt lat="43.21634" lon="-0.37658">
        <ele>207.78</ele>
        <time>2012-09-11T12:33:57Z</time>
      </trkpt>
      <trkpt lat="43.21634" lon="-0.37643">
        <ele>208.74</ele>
        <time>2012-09-11T12:34:06Z</time>
      </trkpt>
      <trkpt lat="43.21634" lon="-0.37631">
        <ele>209.7</ele>
        <time>2012-09-11T12:34:14Z</time>
      </trkpt>
      <trkpt lat="43.21633" lon="-0.37618">
        <ele>210.67</ele>
        <time>2012-09-11T12:34:23Z</time>
      </trkpt>
      <trkpt lat="43.21631" lon="-0.37603">
        <ele>211.15</ele>
        <time>2012-09-11T12:34:33Z</time>
      </trkpt>
      <trkpt lat="43.21634" lon="-0.37585">
        <ele>211.63</ele>
        <time>2012-09-11T12:34:41Z</time>
      </trkpt>
      <trkpt lat="43.21639" lon="-0.37576">
        <ele>211.63</ele>
        <time>2012-09-11T12:34:49Z</time>
      </trkpt>
      <trkpt lat="43.2164" lon="-0.37562">
        <ele>211.15</ele>
        <time>2012-09-11T12:35:00Z</time>
      </trkpt>
      <trkpt lat="43.21641" lon="-0.37545">
        <ele>211.15</ele>
        <time>2012-09-11T12:35:10Z</time>
      </trkpt>
      <trkpt lat="43.21644" lon="-0.37535">
        <ele>210.19</ele>
        <time>2012-09-11T12:35:19Z</time>
      </trkpt>
      <trkpt lat="43.21646" lon="-0.37523">
        <ele>211.15</ele>
        <time>2012-09-11T12:35:31Z</time>
      </trkpt>
      <trkpt lat="43.21644" lon="-0.37509">
        <ele>211.63</ele>
        <time>2012-09-11T12:35:42Z</time>
      </trkpt>
      <trkpt lat="43.21642" lon="-0.37495">
        <ele>211.63</ele>
        <time>2012-09-11T12:35:50Z</time>
      </trkpt>
      <trkpt lat="43.21642" lon="-0.37482">
        <ele>212.11</ele>
        <time>2012-09-11T12:35:58Z</time>
      </trkpt>
      <trkpt lat="43.21645" lon="-0.37465">
        <ele>212.59</ele>
        <time>2012-09-11T12:36:07Z</time>
      </trkpt>
      <trkpt lat="43.21645" lon="-0.37451">
        <ele>212.59</ele>
        <time>2012-09-11T12:36:16Z</time>
      </trkpt>
      <trkpt lat="43.21645" lon="-0.37437">
        <ele>212.11</ele>
        <time>2012-09-11T12:36:25Z</time>
      </trkpt>
      <trkpt lat="43.21646" lon="-0.37423">
        <ele>212.59</ele>
        <time>2012-09-11T12:36:34Z</time>
      </trkpt>
      <trkpt lat="43.2165" lon="-0.37408">
        <ele>213.07</ele>
        <time>2012-09-11T12:36:43Z</time>
      </trkpt>
      <trkpt lat="43.21652" lon="-0.37395">
        <ele>212.59</ele>
        <time>2012-09-11T12:36:52Z</time>
      </trkpt>
      <trkpt lat="43.21652" lon="-0.37382">
        <ele>212.59</ele>
        <time>2012-09-11T12:37:00Z</time>
      </trkpt>
      <trkpt lat="43.21653" lon="-0.3737">
        <ele>213.55</ele>
        <time>2012-09-11T12:37:08Z</time>
      </trkpt>
      <trkpt lat="43.21651" lon="-0.37358">
        <ele>214.99</ele>
        <time>2012-09-11T12:37:17Z</time>
      </trkpt>
      <trkpt lat="43.2165" lon="-0.37345">
        <ele>215.95</ele>
        <time>2012-09-11T12:37:27Z</time>
      </trkpt>
      <trkpt lat="43.2165" lon="-0.37332">
        <ele>216.43</ele>
        <time>2012-09-11T12:37:37Z</time>
      </trkpt>
      <trkpt lat="43.2165" lon="-0.37319">
        <ele>216.43</ele>
        <time>2012-09-11T12:37:46Z</time>
      </trkpt>
      <trkpt lat="43.21653" lon="-0.37306">
        <ele>216.91</ele>
        <time>2012-09-11T12:37:56Z</time>
      </trkpt>
      <trkpt lat="43.21656" lon="-0.37292">
        <ele>217.4</ele>
        <time>2012-09-11T12:38:06Z</time>
      </trkpt>
      <trkpt lat="43.2166" lon="-0.3728">
        <ele>216.91</ele>
        <time>2012-09-11T12:38:15Z</time>
      </trkpt>
      <trkpt lat="43.21661" lon="-0.37264">
        <ele>217.4</ele>
        <time>2012-09-11T12:38:25Z</time>
      </trkpt>
      <trkpt lat="43.21662" lon="-0.3725">
        <ele>217.4</ele>
        <time>2012-09-11T12:38:34Z</time>
      </trkpt>
      <trkpt lat="43.21663" lon="-0.37236">
        <ele>217.4</ele>
        <time>2012-09-11T12:38:43Z</time>
      </trkpt>
      <trkpt lat="43.21661" lon="-0.37224">
        <ele>217.88</ele>
        <time>2012-09-11T12:38:53Z</time>
      </trkpt>
      <trkpt lat="43.21658" lon="-0.37212">
        <ele>217.88</ele>
        <time>2012-09-11T12:39:02Z</time>
      </trkpt>
      <trkpt lat="43.21658" lon="-0.37198">
        <ele>217.4</ele>
        <time>2012-09-11T12:39:12Z</time>
      </trkpt>
      <trkpt lat="43.21657" lon="-0.37185">
        <ele>218.36</ele>
        <time>2012-09-11T12:39:21Z</time>
      </trkpt>
      <trkpt lat="43.21657" lon="-0.37173">
        <ele>219.8</ele>
        <time>2012-09-11T12:39:31Z</time>
      </trkpt>
      <trkpt lat="43.21655" lon="-0.37161">
        <ele>221.24</ele>
        <time>2012-09-11T12:39:44Z</time>
      </trkpt>
      <trkpt lat="43.21658" lon="-0.37145">
        <ele>223.16</ele>
        <time>2012-09-11T12:40:31Z</time>
      </trkpt>
      <trkpt lat="43.21659" lon="-0.37132">
        <ele>224.12</ele>
        <time>2012-09-11T12:40:44Z</time>
      </trkpt>
      <trkpt lat="43.21656" lon="-0.37118">
        <ele>225.57</ele>
        <time>2012-09-11T12:40:56Z</time>
      </trkpt>
      <trkpt lat="43.21651" lon="-0.37104">
        <ele>227.49</ele>
        <time>2012-09-11T12:41:09Z</time>
      </trkpt>
      <trkpt lat="43.21646" lon="-0.37087">
        <ele>229.41</ele>
        <time>2012-09-11T12:41:24Z</time>
      </trkpt>
      <trkpt lat="43.21637" lon="-0.37076">
        <ele>230.85</ele>
        <time>2012-09-11T12:41:37Z</time>
      </trkpt>
      <trkpt lat="43.2163" lon="-0.37063">
        <ele>232.3</ele>
        <time>2012-09-11T12:41:54Z</time>
      </trkpt>
      <trkpt lat="43.21628" lon="-0.37051">
        <ele>233.74</ele>
        <time>2012-09-11T12:42:06Z</time>
      </trkpt>
      <trkpt lat="43.21628" lon="-0.37038">
        <ele>235.66</ele>
        <time>2012-09-11T12:42:20Z</time>
      </trkpt>
      <trkpt lat="43.21631" lon="-0.37027">
        <ele>237.1</ele>
        <time>2012-09-11T12:42:31Z</time>
      </trkpt>
      <trkpt lat="43.21633" lon="-0.37015">
        <ele>238.06</ele>
        <time>2012-09-11T12:42:45Z</time>
      </trkpt>
      <trkpt lat="43.21633" lon="-0.37003">
        <ele>239.99</ele>
        <time>2012-09-11T12:43:00Z</time>
      </trkpt>
      <trkpt lat="43.21635" lon="-0.36991">
        <ele>241.43</ele>
        <time>2012-09-11T12:43:11Z</time>
      </trkpt>
      <trkpt lat="43.21633" lon="-0.3698">
        <ele>242.87</ele>
        <time>2012-09-11T12:43:23Z</time>
      </trkpt>
      <trkpt lat="43.21628" lon="-0.36969">
        <ele>244.31</ele>
        <time>2012-09-11T12:43:36Z</time>
      </trkpt>
      <trkpt lat="43.21631" lon="-0.36956">
        <ele>245.27</ele>
        <time>2012-09-11T12:43:47Z</time>
      </trkpt>
      <trkpt lat="43.21633" lon="-0.36944">
        <ele>246.23</ele>
        <time>2012-09-11T12:43:59Z</time>
      </trkpt>
      <trkpt lat="43.21633" lon="-0.36931">
        <ele>247.68</ele>
        <time>2012-09-11T12:44:13Z</time>
      </trkpt>
      <trkpt lat="43.21638" lon="-0.36921">
        <ele>248.64</ele>
        <time>2012-09-11T12:44:27Z</time>
      </trkpt>
      <trkpt lat="43.21643" lon="-0.36908">
        <ele>248.16</ele>
        <time>2012-09-11T12:44:39Z</time>
      </trkpt>
      <trkpt lat="43.21646" lon="-0.36896">
        <ele>248.64</ele>
        <time>2012-09-11T12:44:48Z</time>
      </trkpt>
      <trkpt lat="43.21644" lon="-0.36884">
        <ele>250.56</ele>
        <time>2012-09-11T12:45:00Z</time>
      </trkpt>
      <trkpt lat="43.21645" lon="-0.36872">
        <ele>252.48</ele>
        <time>2012-09-11T12:45:13Z</time>
      </trkpt>
      <trkpt lat="43.21646" lon="-0.3686">
        <ele>253.44</ele>
        <time>2012-09-11T12:45:24Z</time>
      </trkpt>
      <trkpt lat="43.21652" lon="-0.3685">
        <ele>254.41</ele>
        <time>2012-09-11T12:45:32Z</time>
      </trkpt>
      <trkpt lat="43.21651" lon="-0.36839">
        <ele>255.85</ele>
        <time>2012-09-11T12:45:48Z</time>
      </trkpt>
      <trkpt lat="43.21648" lon="-0.36826">
        <ele>256.81</ele>
        <time>2012-09-11T12:45:59Z</time>
      </trkpt>
      <trkpt lat="43.21647" lon="-0.36814">
        <ele>258.73</ele>
        <time>2012-09-11T12:46:13Z</time>
      </trkpt>
      <trkpt lat="43.21643" lon="-0.36801">
        <ele>261.14</ele>
        <time>2012-09-11T12:46:30Z</time>
      </trkpt>
      <trkpt lat="43.21641" lon="-0.36789">
        <ele>262.1</ele>
        <time>2012-09-11T12:46:41Z</time>
      </trkpt>
      <trkpt lat="43.21638" lon="-0.36775">
        <ele>263.06</ele>
        <time>2012-09-11T12:46:54Z</time>
      </trkpt>
      <trkpt lat="43.21632" lon="-0.36764">
        <ele>264.5</ele>
        <time>2012-09-11T12:47:05Z</time>
      </trkpt>
      <trkpt lat="43.21625" lon="-0.36755">
        <ele>266.42</ele>
        <time>2012-09-11T12:47:18Z</time>
      </trkpt>
      <trkpt lat="43.21619" lon="-0.36745">
        <ele>268.83</ele>
        <time>2012-09-11T12:47:48Z</time>
      </trkpt>
      <trkpt lat="43.21611" lon="-0.36736">
        <ele>269.79</ele>
        <time>2012-09-11T12:47:57Z</time>
      </trkpt>
      <trkpt lat="43.21603" lon="-0.36728">
        <ele>271.23</ele>
        <time>2012-09-11T12:48:07Z</time>
      </trkpt>
      <trkpt lat="43.21592" lon="-0.36717">
        <ele>276.52</ele>
        <time>2012-09-11T12:48:57Z</time>
      </trkpt>
      <trkpt lat="43.21578" lon="-0.36703">
        <ele>277.48</ele>
        <time>2012-09-11T12:49:10Z</time>
      </trkpt>
      <trkpt lat="43.21576" lon="-0.367">
        <ele>276.52</ele>
        <time>2012-09-11T12:51:50Z</time>
      </trkpt>
      <trkpt lat="43.21565" lon="-0.36684">
        <ele>277</ele>
        <time>2012-09-11T12:52:00Z</time>
      </trkpt>
      <trkpt lat="43.21548" lon="-0.36653">
        <ele>277.48</ele>
        <time>2012-09-11T12:52:11Z</time>
      </trkpt>
      <trkpt lat="43.21539" lon="-0.36645">
        <ele>277.48</ele>
        <time>2012-09-11T12:52:23Z</time>
      </trkpt>
      <trkpt lat="43.21531" lon="-0.36636">
        <ele>277.96</ele>
        <time>2012-09-11T12:52:32Z</time>
      </trkpt>
      <trkpt lat="43.21521" lon="-0.36626">
        <ele>277.96</ele>
        <time>2012-09-11T12:52:41Z</time>
      </trkpt>
      <trkpt lat="43.21512" lon="-0.3662">
        <ele>277.96</ele>
        <time>2012-09-11T12:52:54Z</time>
      </trkpt>
      <trkpt lat="43.215" lon="-0.36613">
        <ele>278.44</ele>
        <time>2012-09-11T12:53:04Z</time>
      </trkpt>
      <trkpt lat="43.21491" lon="-0.3661">
        <ele>279.88</ele>
        <time>2012-09-11T12:53:12Z</time>
      </trkpt>
      <trkpt lat="43.21484" lon="-0.36598">
        <ele>280.36</ele>
        <time>2012-09-11T12:53:21Z</time>
      </trkpt>
      <trkpt lat="43.21477" lon="-0.36587">
        <ele>281.32</ele>
        <time>2012-09-11T12:53:31Z</time>
      </trkpt>
      <trkpt lat="43.21475" lon="-0.36574">
        <ele>282.28</ele>
        <time>2012-09-11T12:53:41Z</time>
      </trkpt>
      <trkpt lat="43.21475" lon="-0.36561">
        <ele>282.77</ele>
        <time>2012-09-11T12:53:51Z</time>
      </trkpt>
      <trkpt lat="43.21475" lon="-0.36548">
        <ele>283.73</ele>
        <time>2012-09-11T12:54:02Z</time>
      </trkpt>
      <trkpt lat="43.21472" lon="-0.36538">
        <ele>284.69</ele>
        <time>2012-09-11T12:54:16Z</time>
      </trkpt>
      <trkpt lat="43.21466" lon="-0.36529">
        <ele>285.17</ele>
        <time>2012-09-11T12:54:54Z</time>
      </trkpt>
      <trkpt lat="43.21459" lon="-0.3652">
        <ele>286.61</ele>
        <time>2012-09-11T12:55:06Z</time>
      </trkpt>
      <trkpt lat="43.21454" lon="-0.36509">
        <ele>288.05</ele>
        <time>2012-09-11T12:55:32Z</time>
      </trkpt>
      <trkpt lat="43.21445" lon="-0.36488">
        <ele>289.01</ele>
        <time>2012-09-11T12:55:45Z</time>
      </trkpt>
      <trkpt lat="43.21443" lon="-0.36476">
        <ele>289.97</ele>
        <time>2012-09-11T12:55:56Z</time>
      </trkpt>
      <trkpt lat="43.2144" lon="-0.36463">
        <ele>290.94</ele>
        <time>2012-09-11T12:56:07Z</time>
      </trkpt>
      <trkpt lat="43.21436" lon="-0.3645">
        <ele>292.38</ele>
        <time>2012-09-11T12:56:19Z</time>
      </trkpt>
      <trkpt lat="43.21427" lon="-0.3644">
        <ele>291.9</ele>
        <time>2012-09-11T12:56:37Z</time>
      </trkpt>
      <trkpt lat="43.2142" lon="-0.36434">
        <ele>291.42</ele>
        <time>2012-09-11T12:56:50Z</time>
      </trkpt>
      <trkpt lat="43.21403" lon="-0.36417">
        <ele>291.42</ele>
        <time>2012-09-11T12:57:04Z</time>
      </trkpt>
      <trkpt lat="43.21391" lon="-0.36408">
        <ele>291.9</ele>
        <time>2012-09-11T12:57:14Z</time>
      </trkpt>
      <trkpt lat="43.21379" lon="-0.36398">
        <ele>292.38</ele>
        <time>2012-09-11T12:57:26Z</time>
      </trkpt>
      <trkpt lat="43.21371" lon="-0.36391">
        <ele>292.86</ele>
        <time>2012-09-11T12:57:37Z</time>
      </trkpt>
      <trkpt lat="43.21362" lon="-0.36386">
        <ele>293.34</ele>
        <time>2012-09-11T12:57:47Z</time>
      </trkpt>
      <trkpt lat="43.21353" lon="-0.36383">
        <ele>296.7</ele>
        <time>2012-09-11T12:58:16Z</time>
      </trkpt>
      <trkpt lat="43.2133" lon="-0.36366">
        <ele>306.32</ele>
        <time>2012-09-11T12:59:43Z</time>
      </trkpt>
      <trkpt lat="43.21322" lon="-0.36349">
        <ele>306.8</ele>
        <time>2012-09-11T13:00:06Z</time>
      </trkpt>
      <trkpt lat="43.21318" lon="-0.36334">
        <ele>307.28</ele>
        <time>2012-09-11T13:00:30Z</time>
      </trkpt>
      <trkpt lat="43.21292" lon="-0.36293">
        <ele>307.28</ele>
        <time>2012-09-11T13:00:48Z</time>
      </trkpt>
      <trkpt lat="43.21277" lon="-0.36263">
        <ele>308.24</ele>
        <time>2012-09-11T13:03:08Z</time>
      </trkpt>
      <trkpt lat="43.2127" lon="-0.36253">
        <ele>308.72</ele>
        <time>2012-09-11T13:03:19Z</time>
      </trkpt>
      <trkpt lat="43.21262" lon="-0.3624">
        <ele>309.2</ele>
        <time>2012-09-11T13:03:30Z</time>
      </trkpt>
      <trkpt lat="43.21257" lon="-0.36229">
        <ele>309.2</ele>
        <time>2012-09-11T13:03:41Z</time>
      </trkpt>
      <trkpt lat="43.21254" lon="-0.36218">
        <ele>311.6</ele>
        <time>2012-09-11T13:03:55Z</time>
      </trkpt>
      <trkpt lat="43.21252" lon="-0.36212">
        <ele>317.37</ele>
        <time>2012-09-11T13:04:40Z</time>
      </trkpt>
      <trkpt lat="43.21245" lon="-0.36193">
        <ele>319.78</ele>
        <time>2012-09-11T13:04:54Z</time>
      </trkpt>
      <trkpt lat="43.21234" lon="-0.36182">
        <ele>321.22</ele>
        <time>2012-09-11T13:05:05Z</time>
      </trkpt>
      <trkpt lat="43.21227" lon="-0.36159">
        <ele>324.1</ele>
        <time>2012-09-11T13:05:26Z</time>
      </trkpt>
      <trkpt lat="43.21218" lon="-0.36149">
        <ele>326.99</ele>
        <time>2012-09-11T13:05:46Z</time>
      </trkpt>
      <trkpt lat="43.21214" lon="-0.3614">
        <ele>328.43</ele>
        <time>2012-09-11T13:05:59Z</time>
      </trkpt>
      <trkpt lat="43.21208" lon="-0.36133">
        <ele>330.35</ele>
        <time>2012-09-11T13:06:15Z</time>
      </trkpt>
      <trkpt lat="43.21202" lon="-0.36123">
        <ele>331.79</ele>
        <time>2012-09-11T13:06:38Z</time>
      </trkpt>
      <trkpt lat="43.21196" lon="-0.36112">
        <ele>332.75</ele>
        <time>2012-09-11T13:07:14Z</time>
      </trkpt>
      <trkpt lat="43.21191" lon="-0.36116">
        <ele>334.2</ele>
        <time>2012-09-11T13:12:46Z</time>
      </trkpt>
      <trkpt lat="43.21191" lon="-0.36113">
        <ele>337.08</ele>
        <time>2012-09-11T13:18:57Z</time>
      </trkpt>
      <trkpt lat="43.21185" lon="-0.361">
        <ele>337.08</ele>
        <time>2012-09-11T13:19:08Z</time>
      </trkpt>
      <trkpt lat="43.21177" lon="-0.3609">
        <ele>337.08</ele>
        <time>2012-09-11T13:19:19Z</time>
      </trkpt>
      <trkpt lat="43.21167" lon="-0.36087">
        <ele>336.6</ele>
        <time>2012-09-11T13:19:30Z</time>
      </trkpt>
      <trkpt lat="43.21157" lon="-0.3609">
        <ele>336.12</ele>
        <time>2012-09-11T13:19:42Z</time>
      </trkpt>
      <trkpt lat="43.2115" lon="-0.36099">
        <ele>337.08</ele>
        <time>2012-09-11T13:19:52Z</time>
      </trkpt>
      <trkpt lat="43.21143" lon="-0.36108">
        <ele>337.56</ele>
        <time>2012-09-11T13:20:01Z</time>
      </trkpt>
      <trkpt lat="43.21136" lon="-0.36116">
        <ele>338.52</ele>
        <time>2012-09-11T13:20:10Z</time>
      </trkpt>
      <trkpt lat="43.21127" lon="-0.36122">
        <ele>339.48</ele>
        <time>2012-09-11T13:20:20Z</time>
      </trkpt>
      <trkpt lat="43.21119" lon="-0.3613">
        <ele>340.44</ele>
        <time>2012-09-11T13:20:32Z</time>
      </trkpt>
      <trkpt lat="43.2111" lon="-0.36137">
        <ele>341.41</ele>
        <time>2012-09-11T13:20:42Z</time>
      </trkpt>
      <trkpt lat="43.21102" lon="-0.36144">
        <ele>341.41</ele>
        <time>2012-09-11T13:20:53Z</time>
      </trkpt>
      <trkpt lat="43.21098" lon="-0.3616">
        <ele>341.89</ele>
        <time>2012-09-11T13:21:03Z</time>
      </trkpt>
      <trkpt lat="43.211" lon="-0.3617">
        <ele>342.85</ele>
        <time>2012-09-11T13:21:18Z</time>
      </trkpt>
      <trkpt lat="43.21103" lon="-0.36176">
        <ele>343.81</ele>
        <time>2012-09-11T13:23:44Z</time>
      </trkpt>
      <trkpt lat="43.21102" lon="-0.36176">
        <ele>344.77</ele>
        <time>2012-09-11T13:28:54Z</time>
      </trkpt>
      <trkpt lat="43.211" lon="-0.36175">
        <ele>345.73</ele>
        <time>2012-09-11T13:32:14Z</time>
      </trkpt>
      <trkpt lat="43.21102" lon="-0.36188">
        <ele>346.69</ele>
        <time>2012-09-11T13:32:54Z</time>
      </trkpt>
      <trkpt lat="43.21095" lon="-0.36197">
        <ele>347.65</ele>
        <time>2012-09-11T13:33:06Z</time>
      </trkpt>
      <trkpt lat="43.21089" lon="-0.36211">
        <ele>348.13</ele>
        <time>2012-09-11T13:33:16Z</time>
      </trkpt>
      <trkpt lat="43.21083" lon="-0.36222">
        <ele>348.13</ele>
        <time>2012-09-11T13:33:26Z</time>
      </trkpt>
      <trkpt lat="43.21075" lon="-0.36232">
        <ele>348.62</ele>
        <time>2012-09-11T13:33:35Z</time>
      </trkpt>
      <trkpt lat="43.2107" lon="-0.36242">
        <ele>348.62</ele>
        <time>2012-09-11T13:33:44Z</time>
      </trkpt>
      <trkpt lat="43.21063" lon="-0.36251">
        <ele>349.1</ele>
        <time>2012-09-11T13:33:53Z</time>
      </trkpt>
      <trkpt lat="43.21056" lon="-0.36259">
        <ele>350.54</ele>
        <time>2012-09-11T13:34:02Z</time>
      </trkpt>
      <trkpt lat="43.21048" lon="-0.36265">
        <ele>351.5</ele>
        <time>2012-09-11T13:34:11Z</time>
      </trkpt>
      <trkpt lat="43.21039" lon="-0.36269">
        <ele>351.98</ele>
        <time>2012-09-11T13:34:20Z</time>
      </trkpt>
      <trkpt lat="43.21029" lon="-0.36272">
        <ele>352.46</ele>
        <time>2012-09-11T13:34:29Z</time>
      </trkpt>
      <trkpt lat="43.21019" lon="-0.36273">
        <ele>352.94</ele>
        <time>2012-09-11T13:34:38Z</time>
      </trkpt>
      <trkpt lat="43.21009" lon="-0.36275">
        <ele>352.94</ele>
        <time>2012-09-11T13:34:47Z</time>
      </trkpt>
      <trkpt lat="43.20997" lon="-0.3628">
        <ele>352.94</ele>
        <time>2012-09-11T13:34:56Z</time>
      </trkpt>
      <trkpt lat="43.20989" lon="-0.36284">
        <ele>352.94</ele>
        <time>2012-09-11T13:35:04Z</time>
      </trkpt>
      <trkpt lat="43.2098" lon="-0.36288">
        <ele>352.46</ele>
        <time>2012-09-11T13:35:12Z</time>
      </trkpt>
      <trkpt lat="43.20971" lon="-0.36293">
        <ele>352.46</ele>
        <time>2012-09-11T13:35:20Z</time>
      </trkpt>
      <trkpt lat="43.20962" lon="-0.363">
        <ele>352.94</ele>
        <time>2012-09-11T13:35:29Z</time>
      </trkpt>
      <trkpt lat="43.20954" lon="-0.36306">
        <ele>353.42</ele>
        <time>2012-09-11T13:35:38Z</time>
      </trkpt>
      <trkpt lat="43.20947" lon="-0.36314">
        <ele>354.38</ele>
        <time>2012-09-11T13:35:49Z</time>
      </trkpt>
      <trkpt lat="43.2094" lon="-0.36321">
        <ele>355.34</ele>
        <time>2012-09-11T13:35:58Z</time>
      </trkpt>
      <trkpt lat="43.20933" lon="-0.36331">
        <ele>356.31</ele>
        <time>2012-09-11T13:36:07Z</time>
      </trkpt>
      <trkpt lat="43.20927" lon="-0.36339">
        <ele>357.27</ele>
        <time>2012-09-11T13:36:15Z</time>
      </trkpt>
      <trkpt lat="43.2092" lon="-0.36348">
        <ele>357.27</ele>
        <time>2012-09-11T13:36:23Z</time>
      </trkpt>
      <trkpt lat="43.20913" lon="-0.36357">
        <ele>357.75</ele>
        <time>2012-09-11T13:36:31Z</time>
      </trkpt>
      <trkpt lat="43.20906" lon="-0.36365">
        <ele>358.71</ele>
        <time>2012-09-11T13:36:39Z</time>
      </trkpt>
      <trkpt lat="43.20901" lon="-0.36376">
        <ele>359.19</ele>
        <time>2012-09-11T13:36:47Z</time>
      </trkpt>
      <trkpt lat="43.20898" lon="-0.36388">
        <ele>360.15</ele>
        <time>2012-09-11T13:36:56Z</time>
      </trkpt>
      <trkpt lat="43.20895" lon="-0.364">
        <ele>361.11</ele>
        <time>2012-09-11T13:37:05Z</time>
      </trkpt>
      <trkpt lat="43.2089" lon="-0.36411">
        <ele>361.59</ele>
        <time>2012-09-11T13:37:13Z</time>
      </trkpt>
      <trkpt lat="43.20887" lon="-0.36424">
        <ele>361.59</ele>
        <time>2012-09-11T13:37:22Z</time>
      </trkpt>
      <trkpt lat="43.20881" lon="-0.36436">
        <ele>361.59</ele>
        <time>2012-09-11T13:37:31Z</time>
      </trkpt>
      <trkpt lat="43.20876" lon="-0.36447">
        <ele>361.11</ele>
        <time>2012-09-11T13:37:39Z</time>
      </trkpt>
      <trkpt lat="43.20869" lon="-0.36457">
        <ele>361.11</ele>
        <time>2012-09-11T13:37:47Z</time>
      </trkpt>
      <trkpt lat="43.20862" lon="-0.36468">
        <ele>361.11</ele>
        <time>2012-09-11T13:37:55Z</time>
      </trkpt>
      <trkpt lat="43.20855" lon="-0.36476">
        <ele>360.63</ele>
        <time>2012-09-11T13:38:03Z</time>
      </trkpt>
      <trkpt lat="43.20846" lon="-0.36482">
        <ele>359.67</ele>
        <time>2012-09-11T13:38:11Z</time>
      </trkpt>
      <trkpt lat="43.20839" lon="-0.36484">
        <ele>359.67</ele>
        <time>2012-09-11T13:38:19Z</time>
      </trkpt>
      <trkpt lat="43.2083" lon="-0.36488">
        <ele>358.23</ele>
        <time>2012-09-11T13:38:28Z</time>
      </trkpt>
      <trkpt lat="43.2082" lon="-0.3649">
        <ele>357.75</ele>
        <time>2012-09-11T13:38:37Z</time>
      </trkpt>
      <trkpt lat="43.20809" lon="-0.36491">
        <ele>357.27</ele>
        <time>2012-09-11T13:38:46Z</time>
      </trkpt>
      <trkpt lat="43.20799" lon="-0.36493">
        <ele>357.27</ele>
        <time>2012-09-11T13:38:55Z</time>
      </trkpt>
      <trkpt lat="43.20788" lon="-0.36494">
        <ele>356.79</ele>
        <time>2012-09-11T13:39:05Z</time>
      </trkpt>
      <trkpt lat="43.20777" lon="-0.36496">
        <ele>355.83</ele>
        <time>2012-09-11T13:39:15Z</time>
      </trkpt>
      <trkpt lat="43.20767" lon="-0.36497">
        <ele>355.83</ele>
        <time>2012-09-11T13:39:25Z</time>
      </trkpt>
      <trkpt lat="43.20757" lon="-0.36499">
        <ele>355.34</ele>
        <time>2012-09-11T13:39:34Z</time>
      </trkpt>
      <trkpt lat="43.20746" lon="-0.36498">
        <ele>354.86</ele>
        <time>2012-09-11T13:39:44Z</time>
      </trkpt>
      <trkpt lat="43.20732" lon="-0.36496">
        <ele>354.38</ele>
        <time>2012-09-11T13:39:56Z</time>
      </trkpt>
      <trkpt lat="43.20718" lon="-0.36496">
        <ele>353.9</ele>
        <time>2012-09-11T13:40:08Z</time>
      </trkpt>
      <trkpt lat="43.20706" lon="-0.36493">
        <ele>352.94</ele>
        <time>2012-09-11T13:40:19Z</time>
      </trkpt>
      <trkpt lat="43.20696" lon="-0.36486">
        <ele>351.5</ele>
        <time>2012-09-11T13:40:29Z</time>
      </trkpt>
      <trkpt lat="43.20685" lon="-0.36481">
        <ele>350.06</ele>
        <time>2012-09-11T13:40:38Z</time>
      </trkpt>
      <trkpt lat="43.20676" lon="-0.36475">
        <ele>349.1</ele>
        <time>2012-09-11T13:40:46Z</time>
      </trkpt>
      <trkpt lat="43.20667" lon="-0.36469">
        <ele>348.13</ele>
        <time>2012-09-11T13:40:54Z</time>
      </trkpt>
      <trkpt lat="43.2066" lon="-0.36463">
        <ele>347.17</ele>
        <time>2012-09-11T13:41:02Z</time>
      </trkpt>
      <trkpt lat="43.2065" lon="-0.36457">
        <ele>346.21</ele>
        <time>2012-09-11T13:41:10Z</time>
      </trkpt>
      <trkpt lat="43.20641" lon="-0.36452">
        <ele>345.25</ele>
        <time>2012-09-11T13:41:18Z</time>
      </trkpt>
      <trkpt lat="43.2063" lon="-0.36448">
        <ele>345.25</ele>
        <time>2012-09-11T13:41:26Z</time>
      </trkpt>
      <trkpt lat="43.2062" lon="-0.36442">
        <ele>344.77</ele>
        <time>2012-09-11T13:41:34Z</time>
      </trkpt>
      <trkpt lat="43.20612" lon="-0.36437">
        <ele>344.77</ele>
        <time>2012-09-11T13:41:42Z</time>
      </trkpt>
      <trkpt lat="43.20605" lon="-0.36434">
        <ele>345.25</ele>
        <time>2012-09-11T13:44:06Z</time>
      </trkpt>
      <trkpt lat="43.20595" lon="-0.36428">
        <ele>345.25</ele>
        <time>2012-09-11T13:44:17Z</time>
      </trkpt>
      <trkpt lat="43.20585" lon="-0.36426">
        <ele>347.17</ele>
        <time>2012-09-11T13:44:28Z</time>
      </trkpt>
      <trkpt lat="43.20574" lon="-0.36424">
        <ele>349.1</ele>
        <time>2012-09-11T13:44:42Z</time>
      </trkpt>
      <trkpt lat="43.20563" lon="-0.36425">
        <ele>350.54</ele>
        <time>2012-09-11T13:44:52Z</time>
      </trkpt>
      <trkpt lat="43.20553" lon="-0.36424">
        <ele>351.98</ele>
        <time>2012-09-11T13:45:03Z</time>
      </trkpt>
      <trkpt lat="43.20543" lon="-0.36426">
        <ele>353.9</ele>
        <time>2012-09-11T13:45:15Z</time>
      </trkpt>
      <trkpt lat="43.20533" lon="-0.36425">
        <ele>355.83</ele>
        <time>2012-09-11T13:45:28Z</time>
      </trkpt>
      <trkpt lat="43.20522" lon="-0.36427">
        <ele>357.27</ele>
        <time>2012-09-11T13:45:39Z</time>
      </trkpt>
      <trkpt lat="43.20513" lon="-0.36427">
        <ele>358.71</ele>
        <time>2012-09-11T13:45:50Z</time>
      </trkpt>
      <trkpt lat="43.205" lon="-0.36427">
        <ele>359.19</ele>
        <time>2012-09-11T13:46:02Z</time>
      </trkpt>
      <trkpt lat="43.2049" lon="-0.36428">
        <ele>360.63</ele>
        <time>2012-09-11T13:46:13Z</time>
      </trkpt>
      <trkpt lat="43.2048" lon="-0.36429">
        <ele>362.07</ele>
        <time>2012-09-11T13:46:26Z</time>
      </trkpt>
      <trkpt lat="43.20469" lon="-0.36426">
        <ele>364</ele>
        <time>2012-09-11T13:46:39Z</time>
      </trkpt>
      <trkpt lat="43.20459" lon="-0.36424">
        <ele>365.44</ele>
        <time>2012-09-11T13:46:52Z</time>
      </trkpt>
      <trkpt lat="43.20447" lon="-0.36421">
        <ele>366.88</ele>
        <time>2012-09-11T13:47:03Z</time>
      </trkpt>
      <trkpt lat="43.20438" lon="-0.36415">
        <ele>368.32</ele>
        <time>2012-09-11T13:47:16Z</time>
      </trkpt>
      <trkpt lat="43.20426" lon="-0.36411">
        <ele>368.8</ele>
        <time>2012-09-11T13:47:28Z</time>
      </trkpt>
      <trkpt lat="43.20414" lon="-0.3641">
        <ele>369.76</ele>
        <time>2012-09-11T13:47:39Z</time>
      </trkpt>
      <trkpt lat="43.20401" lon="-0.36409">
        <ele>369.76</ele>
        <time>2012-09-11T13:47:50Z</time>
      </trkpt>
      <trkpt lat="43.20389" lon="-0.36406">
        <ele>369.76</ele>
        <time>2012-09-11T13:48:01Z</time>
      </trkpt>
      <trkpt lat="43.20378" lon="-0.36405">
        <ele>368.8</ele>
        <time>2012-09-11T13:48:13Z</time>
      </trkpt>
      <trkpt lat="43.20365" lon="-0.36404">
        <ele>368.32</ele>
        <time>2012-09-11T13:48:27Z</time>
      </trkpt>
      <trkpt lat="43.2035" lon="-0.36404">
        <ele>368.32</ele>
        <time>2012-09-11T13:48:38Z</time>
      </trkpt>
      <trkpt lat="43.20336" lon="-0.36405">
        <ele>368.32</ele>
        <time>2012-09-11T13:48:50Z</time>
      </trkpt>
      <trkpt lat="43.20324" lon="-0.36407">
        <ele>368.8</ele>
        <time>2012-09-11T13:49:00Z</time>
      </trkpt>
      <trkpt lat="43.20313" lon="-0.3641">
        <ele>369.76</ele>
        <time>2012-09-11T13:49:10Z</time>
      </trkpt>
      <trkpt lat="43.20304" lon="-0.36414">
        <ele>370.24</ele>
        <time>2012-09-11T13:49:21Z</time>
      </trkpt>
      <trkpt lat="43.2029" lon="-0.36416">
        <ele>370.73</ele>
        <time>2012-09-11T13:49:33Z</time>
      </trkpt>
      <trkpt lat="43.20279" lon="-0.3642">
        <ele>371.21</ele>
        <time>2012-09-11T13:49:45Z</time>
      </trkpt>
      <trkpt lat="43.2027" lon="-0.36421">
        <ele>371.69</ele>
        <time>2012-09-11T13:49:57Z</time>
      </trkpt>
      <trkpt lat="43.20262" lon="-0.36425">
        <ele>372.17</ele>
        <time>2012-09-11T13:50:09Z</time>
      </trkpt>
      <trkpt lat="43.20253" lon="-0.36427">
        <ele>372.65</ele>
        <time>2012-09-11T13:50:39Z</time>
      </trkpt>
      <trkpt lat="43.2024" lon="-0.36433">
        <ele>373.13</ele>
        <time>2012-09-11T13:50:51Z</time>
      </trkpt>
      <trkpt lat="43.20227" lon="-0.36436">
        <ele>373.61</ele>
        <time>2012-09-11T13:51:01Z</time>
      </trkpt>
      <trkpt lat="43.20217" lon="-0.36438">
        <ele>375.05</ele>
        <time>2012-09-11T13:51:10Z</time>
      </trkpt>
      <trkpt lat="43.20208" lon="-0.36444">
        <ele>375.05</ele>
        <time>2012-09-11T13:51:19Z</time>
      </trkpt>
      <trkpt lat="43.20201" lon="-0.36455">
        <ele>375.05</ele>
        <time>2012-09-11T13:51:28Z</time>
      </trkpt>
      <trkpt lat="43.20194" lon="-0.36468">
        <ele>375.05</ele>
        <time>2012-09-11T13:51:40Z</time>
      </trkpt>
      <trkpt lat="43.20187" lon="-0.36476">
        <ele>376.49</ele>
        <time>2012-09-11T13:51:52Z</time>
      </trkpt>
      <trkpt lat="43.20182" lon="-0.36487">
        <ele>378.42</ele>
        <time>2012-09-11T13:52:04Z</time>
      </trkpt>
      <trkpt lat="43.20174" lon="-0.36497">
        <ele>380.34</ele>
        <time>2012-09-11T13:52:18Z</time>
      </trkpt>
      <trkpt lat="43.20166" lon="-0.36505">
        <ele>381.3</ele>
        <time>2012-09-11T13:52:26Z</time>
      </trkpt>
      <trkpt lat="43.20157" lon="-0.36512">
        <ele>382.74</ele>
        <time>2012-09-11T13:52:39Z</time>
      </trkpt>
      <trkpt lat="43.20138" lon="-0.36528">
        <ele>383.22</ele>
        <time>2012-09-11T13:52:55Z</time>
      </trkpt>
      <trkpt lat="43.20127" lon="-0.36539">
        <ele>383.22</ele>
        <time>2012-09-11T13:53:05Z</time>
      </trkpt>
      <trkpt lat="43.20118" lon="-0.36548">
        <ele>382.26</ele>
        <time>2012-09-11T13:53:14Z</time>
      </trkpt>
      <trkpt lat="43.2011" lon="-0.36555">
        <ele>382.26</ele>
        <time>2012-09-11T13:53:23Z</time>
      </trkpt>
      <trkpt lat="43.20102" lon="-0.36563">
        <ele>381.78</ele>
        <time>2012-09-11T13:53:32Z</time>
      </trkpt>
      <trkpt lat="43.20092" lon="-0.36568">
        <ele>382.26</ele>
        <time>2012-09-11T13:53:41Z</time>
      </trkpt>
      <trkpt lat="43.20082" lon="-0.36572">
        <ele>382.74</ele>
        <time>2012-09-11T13:53:50Z</time>
      </trkpt>
      <trkpt lat="43.20072" lon="-0.36575">
        <ele>382.74</ele>
        <time>2012-09-11T13:54:09Z</time>
      </trkpt>
      <trkpt lat="43.20065" lon="-0.36579">
        <ele>383.22</ele>
        <time>2012-09-11T13:54:21Z</time>
      </trkpt>
      <trkpt lat="43.20056" lon="-0.36581">
        <ele>384.18</ele>
        <time>2012-09-11T13:54:41Z</time>
      </trkpt>
      <trkpt lat="43.20046" lon="-0.36583">
        <ele>384.18</ele>
        <time>2012-09-11T13:54:54Z</time>
      </trkpt>
      <trkpt lat="43.20037" lon="-0.36586">
        <ele>384.18</ele>
        <time>2012-09-11T13:55:04Z</time>
      </trkpt>
      <trkpt lat="43.20027" lon="-0.36585">
        <ele>385.15</ele>
        <time>2012-09-11T13:55:13Z</time>
      </trkpt>
      <trkpt lat="43.2002" lon="-0.36585">
        <ele>384.66</ele>
        <time>2012-09-11T13:55:40Z</time>
      </trkpt>
      <trkpt lat="43.2001" lon="-0.36584">
        <ele>384.66</ele>
        <time>2012-09-11T13:55:49Z</time>
      </trkpt>
      <trkpt lat="43.20001" lon="-0.36582">
        <ele>385.15</ele>
        <time>2012-09-11T13:55:58Z</time>
      </trkpt>
      <trkpt lat="43.19991" lon="-0.3658">
        <ele>385.15</ele>
        <time>2012-09-11T13:56:07Z</time>
      </trkpt>
      <trkpt lat="43.19982" lon="-0.36578">
        <ele>385.15</ele>
        <time>2012-09-11T13:56:15Z</time>
      </trkpt>
      <trkpt lat="43.19975" lon="-0.36581">
        <ele>385.63</ele>
        <time>2012-09-11T13:57:04Z</time>
      </trkpt>
      <trkpt lat="43.19964" lon="-0.36583">
        <ele>385.63</ele>
        <time>2012-09-11T13:57:15Z</time>
      </trkpt>
      <trkpt lat="43.19953" lon="-0.36588">
        <ele>387.07</ele>
        <time>2012-09-11T13:57:26Z</time>
      </trkpt>
      <trkpt lat="43.19941" lon="-0.36593">
        <ele>388.03</ele>
        <time>2012-09-11T13:57:38Z</time>
      </trkpt>
      <trkpt lat="43.19929" lon="-0.36598">
        <ele>388.99</ele>
        <time>2012-09-11T13:57:48Z</time>
      </trkpt>
      <trkpt lat="43.19918" lon="-0.36605">
        <ele>390.43</ele>
        <time>2012-09-11T13:57:59Z</time>
      </trkpt>
      <trkpt lat="43.19908" lon="-0.36608">
        <ele>392.36</ele>
        <time>2012-09-11T13:58:10Z</time>
      </trkpt>
      <trkpt lat="43.19897" lon="-0.3661">
        <ele>393.8</ele>
        <time>2012-09-11T13:58:22Z</time>
      </trkpt>
      <trkpt lat="43.19887" lon="-0.36614">
        <ele>395.24</ele>
        <time>2012-09-11T13:58:34Z</time>
      </trkpt>
      <trkpt lat="43.19877" lon="-0.36616">
        <ele>397.16</ele>
        <time>2012-09-11T13:58:47Z</time>
      </trkpt>
      <trkpt lat="43.19866" lon="-0.36618">
        <ele>398.12</ele>
        <time>2012-09-11T13:58:58Z</time>
      </trkpt>
      <trkpt lat="43.19856" lon="-0.36624">
        <ele>399.08</ele>
        <time>2012-09-11T13:59:08Z</time>
      </trkpt>
      <trkpt lat="43.19847" lon="-0.3663">
        <ele>398.6</ele>
        <time>2012-09-11T13:59:17Z</time>
      </trkpt>
      <trkpt lat="43.1984" lon="-0.36639">
        <ele>398.6</ele>
        <time>2012-09-11T13:59:25Z</time>
      </trkpt>
      <trkpt lat="43.19835" lon="-0.36651">
        <ele>398.6</ele>
        <time>2012-09-11T13:59:33Z</time>
      </trkpt>
      <trkpt lat="43.19831" lon="-0.36664">
        <ele>399.08</ele>
        <time>2012-09-11T13:59:41Z</time>
      </trkpt>
      <trkpt lat="43.19828" lon="-0.36675">
        <ele>398.6</ele>
        <time>2012-09-11T14:00:50Z</time>
      </trkpt>
      <trkpt lat="43.19828" lon="-0.36689">
        <ele>399.08</ele>
        <time>2012-09-11T14:01:03Z</time>
      </trkpt>
      <trkpt lat="43.19827" lon="-0.36701">
        <ele>399.08</ele>
        <time>2012-09-11T14:01:12Z</time>
      </trkpt>
      <trkpt lat="43.19827" lon="-0.36714">
        <ele>398.6</ele>
        <time>2012-09-11T14:01:20Z</time>
      </trkpt>
      <trkpt lat="43.19827" lon="-0.36728">
        <ele>398.6</ele>
        <time>2012-09-11T14:01:28Z</time>
      </trkpt>
      <trkpt lat="43.19829" lon="-0.3674">
        <ele>397.64</ele>
        <time>2012-09-11T14:01:36Z</time>
      </trkpt>
      <trkpt lat="43.19828" lon="-0.36753">
        <ele>396.68</ele>
        <time>2012-09-11T14:01:45Z</time>
      </trkpt>
      <trkpt lat="43.19825" lon="-0.36763">
        <ele>395.72</ele>
        <time>2012-09-11T14:01:53Z</time>
      </trkpt>
      <trkpt lat="43.19819" lon="-0.36773">
        <ele>395.24</ele>
        <time>2012-09-11T14:02:01Z</time>
      </trkpt>
      <trkpt lat="43.19811" lon="-0.36782">
        <ele>394.28</ele>
        <time>2012-09-11T14:02:09Z</time>
      </trkpt>
      <trkpt lat="43.19804" lon="-0.36789">
        <ele>393.32</ele>
        <time>2012-09-11T14:02:17Z</time>
      </trkpt>
      <trkpt lat="43.19797" lon="-0.36798">
        <ele>392.84</ele>
        <time>2012-09-11T14:02:25Z</time>
      </trkpt>
      <trkpt lat="43.1979" lon="-0.36805">
        <ele>391.87</ele>
        <time>2012-09-11T14:02:33Z</time>
      </trkpt>
      <trkpt lat="43.19783" lon="-0.36813">
        <ele>391.87</ele>
        <time>2012-09-11T14:02:41Z</time>
      </trkpt>
      <trkpt lat="43.19774" lon="-0.36821">
        <ele>391.87</ele>
        <time>2012-09-11T14:02:49Z</time>
      </trkpt>
      <trkpt lat="43.19767" lon="-0.36831">
        <ele>391.39</ele>
        <time>2012-09-11T14:02:57Z</time>
      </trkpt>
      <trkpt lat="43.1976" lon="-0.36841">
        <ele>391.39</ele>
        <time>2012-09-11T14:03:05Z</time>
      </trkpt>
      <trkpt lat="43.19753" lon="-0.36851">
        <ele>391.87</ele>
        <time>2012-09-11T14:03:13Z</time>
      </trkpt>
      <trkpt lat="43.19747" lon="-0.36861">
        <ele>391.39</ele>
        <time>2012-09-11T14:03:21Z</time>
      </trkpt>
      <trkpt lat="43.1974" lon="-0.36872">
        <ele>391.87</ele>
        <time>2012-09-11T14:03:29Z</time>
      </trkpt>
      <trkpt lat="43.19734" lon="-0.36881">
        <ele>391.87</ele>
        <time>2012-09-11T14:03:37Z</time>
      </trkpt>
      <trkpt lat="43.19728" lon="-0.36892">
        <ele>391.39</ele>
        <time>2012-09-11T14:03:45Z</time>
      </trkpt>
      <trkpt lat="43.19722" lon="-0.36904">
        <ele>391.87</ele>
        <time>2012-09-11T14:03:53Z</time>
      </trkpt>
      <trkpt lat="43.19717" lon="-0.36916">
        <ele>391.87</ele>
        <time>2012-09-11T14:04:01Z</time>
      </trkpt>
      <trkpt lat="43.19713" lon="-0.36927">
        <ele>391.39</ele>
        <time>2012-09-11T14:04:09Z</time>
      </trkpt>
      <trkpt lat="43.19708" lon="-0.36939">
        <ele>391.39</ele>
        <time>2012-09-11T14:04:17Z</time>
      </trkpt>
      <trkpt lat="43.19703" lon="-0.3695">
        <ele>392.36</ele>
        <time>2012-09-11T14:04:25Z</time>
      </trkpt>
      <trkpt lat="43.19699" lon="-0.36962">
        <ele>392.36</ele>
        <time>2012-09-11T14:04:33Z</time>
      </trkpt>
      <trkpt lat="43.19694" lon="-0.36974">
        <ele>392.84</ele>
        <time>2012-09-11T14:04:41Z</time>
      </trkpt>
      <trkpt lat="43.1969" lon="-0.36985">
        <ele>392.84</ele>
        <time>2012-09-11T14:04:49Z</time>
      </trkpt>
      <trkpt lat="43.19685" lon="-0.36996">
        <ele>393.8</ele>
        <time>2012-09-11T14:04:57Z</time>
      </trkpt>
      <trkpt lat="43.1968" lon="-0.37008">
        <ele>393.32</ele>
        <time>2012-09-11T14:05:05Z</time>
      </trkpt>
      <trkpt lat="43.19675" lon="-0.37019">
        <ele>394.76</ele>
        <time>2012-09-11T14:05:13Z</time>
      </trkpt>
      <trkpt lat="43.19671" lon="-0.37032">
        <ele>395.24</ele>
        <time>2012-09-11T14:05:22Z</time>
      </trkpt>
      <trkpt lat="43.19667" lon="-0.37045">
        <ele>396.2</ele>
        <time>2012-09-11T14:05:30Z</time>
      </trkpt>
      <trkpt lat="43.19664" lon="-0.37056">
        <ele>397.64</ele>
        <time>2012-09-11T14:05:38Z</time>
      </trkpt>
      <trkpt lat="43.19662" lon="-0.37069">
        <ele>398.12</ele>
        <time>2012-09-11T14:05:47Z</time>
      </trkpt>
      <trkpt lat="43.19659" lon="-0.37082">
        <ele>399.08</ele>
        <time>2012-09-11T14:05:56Z</time>
      </trkpt>
      <trkpt lat="43.19656" lon="-0.37095">
        <ele>401.01</ele>
        <time>2012-09-11T14:06:06Z</time>
      </trkpt>
      <trkpt lat="43.19653" lon="-0.37108">
        <ele>402.93</ele>
        <time>2012-09-11T14:06:16Z</time>
      </trkpt>
      <trkpt lat="43.1965" lon="-0.37119">
        <ele>404.85</ele>
        <time>2012-09-11T14:06:26Z</time>
      </trkpt>
      <trkpt lat="43.19646" lon="-0.37131">
        <ele>405.81</ele>
        <time>2012-09-11T14:06:36Z</time>
      </trkpt>
      <trkpt lat="43.1964" lon="-0.37142">
        <ele>407.26</ele>
        <time>2012-09-11T14:06:45Z</time>
      </trkpt>
      <trkpt lat="43.19635" lon="-0.37151">
        <ele>408.22</ele>
        <time>2012-09-11T14:06:54Z</time>
      </trkpt>
      <trkpt lat="43.19629" lon="-0.37162">
        <ele>409.66</ele>
        <time>2012-09-11T14:07:03Z</time>
      </trkpt>
      <trkpt lat="43.19623" lon="-0.37172">
        <ele>410.14</ele>
        <time>2012-09-11T14:07:11Z</time>
      </trkpt>
      <trkpt lat="43.19619" lon="-0.37184">
        <ele>410.62</ele>
        <time>2012-09-11T14:07:20Z</time>
      </trkpt>
      <trkpt lat="43.19613" lon="-0.37195">
        <ele>410.62</ele>
        <time>2012-09-11T14:07:29Z</time>
      </trkpt>
      <trkpt lat="43.19612" lon="-0.37209">
        <ele>410.62</ele>
        <time>2012-09-11T14:07:37Z</time>
      </trkpt>
      <trkpt lat="43.1961" lon="-0.37222">
        <ele>411.1</ele>
        <time>2012-09-11T14:07:46Z</time>
      </trkpt>
      <trkpt lat="43.19611" lon="-0.37235">
        <ele>410.62</ele>
        <time>2012-09-11T14:07:57Z</time>
      </trkpt>
      <trkpt lat="43.19612" lon="-0.37248">
        <ele>410.14</ele>
        <time>2012-09-11T14:08:05Z</time>
      </trkpt>
      <trkpt lat="43.19612" lon="-0.37238">
        <ele>410.62</ele>
        <time>2012-09-11T14:08:32Z</time>
      </trkpt>
      <trkpt lat="43.19611" lon="-0.37224">
        <ele>411.1</ele>
        <time>2012-09-11T14:08:41Z</time>
      </trkpt>
      <trkpt lat="43.19609" lon="-0.37212">
        <ele>411.1</ele>
        <time>2012-09-11T14:08:50Z</time>
      </trkpt>
      <trkpt lat="43.19613" lon="-0.3721">
        <ele>411.1</ele>
        <time>2012-09-11T14:09:23Z</time>
      </trkpt>
      <trkpt lat="43.19622" lon="-0.37213">
        <ele>411.1</ele>
        <time>2012-09-11T14:09:33Z</time>
      </trkpt>
      <trkpt lat="43.19632" lon="-0.37218">
        <ele>410.62</ele>
        <time>2012-09-11T14:09:43Z</time>
      </trkpt>
      <trkpt lat="43.19641" lon="-0.37224">
        <ele>410.14</ele>
        <time>2012-09-11T14:09:52Z</time>
      </trkpt>
      <trkpt lat="43.1965" lon="-0.3723">
        <ele>409.18</ele>
        <time>2012-09-11T14:10:01Z</time>
      </trkpt>
      <trkpt lat="43.19659" lon="-0.37235">
        <ele>408.22</ele>
        <time>2012-09-11T14:10:10Z</time>
      </trkpt>
      <trkpt lat="43.19667" lon="-0.37239">
        <ele>406.77</ele>
        <time>2012-09-11T14:10:19Z</time>
      </trkpt>
      <trkpt lat="43.19675" lon="-0.37244">
        <ele>405.81</ele>
        <time>2012-09-11T14:10:29Z</time>
      </trkpt>
      <trkpt lat="43.19683" lon="-0.37249">
        <ele>403.41</ele>
        <time>2012-09-11T14:10:39Z</time>
      </trkpt>
      <trkpt lat="43.19693" lon="-0.37255">
        <ele>401.97</ele>
        <time>2012-09-11T14:10:49Z</time>
      </trkpt>
      <trkpt lat="43.19702" lon="-0.37259">
        <ele>400.53</ele>
        <time>2012-09-11T14:10:59Z</time>
      </trkpt>
      <trkpt lat="43.19712" lon="-0.37264">
        <ele>398.6</ele>
        <time>2012-09-11T14:11:09Z</time>
      </trkpt>
      <trkpt lat="43.19721" lon="-0.37268">
        <ele>396.68</ele>
        <time>2012-09-11T14:11:18Z</time>
      </trkpt>
      <trkpt lat="43.1973" lon="-0.37273">
        <ele>395.72</ele>
        <time>2012-09-11T14:11:27Z</time>
      </trkpt>
      <trkpt lat="43.19739" lon="-0.37278">
        <ele>393.8</ele>
        <time>2012-09-11T14:11:36Z</time>
      </trkpt>
      <trkpt lat="43.19748" lon="-0.37283">
        <ele>393.32</ele>
        <time>2012-09-11T14:11:45Z</time>
      </trkpt>
      <trkpt lat="43.19754" lon="-0.37273">
        <ele>393.32</ele>
        <time>2012-09-11T14:11:59Z</time>
      </trkpt>
      <trkpt lat="43.19758" lon="-0.37265">
        <ele>391.87</ele>
        <time>2012-09-11T14:12:40Z</time>
      </trkpt>
      <trkpt lat="43.19757" lon="-0.37264">
        <ele>395.24</ele>
        <time>2012-09-11T14:27:44Z</time>
      </trkpt>
      <trkpt lat="43.19753" lon="-0.37273">
        <ele>395.72</ele>
        <time>2012-09-11T14:29:48Z</time>
      </trkpt>
      <trkpt lat="43.19754" lon="-0.37283">
        <ele>394.76</ele>
        <time>2012-09-11T14:30:06Z</time>
      </trkpt>
      <trkpt lat="43.19764" lon="-0.37289">
        <ele>392.84</ele>
        <time>2012-09-11T14:30:20Z</time>
      </trkpt>
      <trkpt lat="43.19773" lon="-0.37294">
        <ele>391.39</ele>
        <time>2012-09-11T14:30:32Z</time>
      </trkpt>
      <trkpt lat="43.19783" lon="-0.37297">
        <ele>390.43</ele>
        <time>2012-09-11T14:30:43Z</time>
      </trkpt>
      <trkpt lat="43.19792" lon="-0.37301">
        <ele>388.99</ele>
        <time>2012-09-11T14:30:55Z</time>
      </trkpt>
      <trkpt lat="43.19801" lon="-0.37303">
        <ele>387.55</ele>
        <time>2012-09-11T14:31:05Z</time>
      </trkpt>
      <trkpt lat="43.1981" lon="-0.37303">
        <ele>386.11</ele>
        <time>2012-09-11T14:31:15Z</time>
      </trkpt>
      <trkpt lat="43.19821" lon="-0.37303">
        <ele>384.18</ele>
        <time>2012-09-11T14:31:26Z</time>
      </trkpt>
      <trkpt lat="43.1983" lon="-0.37304">
        <ele>383.22</ele>
        <time>2012-09-11T14:31:37Z</time>
      </trkpt>
      <trkpt lat="43.1984" lon="-0.37304">
        <ele>382.26</ele>
        <time>2012-09-11T14:31:47Z</time>
      </trkpt>
      <trkpt lat="43.1985" lon="-0.37304">
        <ele>381.3</ele>
        <time>2012-09-11T14:31:56Z</time>
      </trkpt>
      <trkpt lat="43.19859" lon="-0.37304">
        <ele>380.82</ele>
        <time>2012-09-11T14:32:05Z</time>
      </trkpt>
      <trkpt lat="43.19869" lon="-0.37304">
        <ele>380.34</ele>
        <time>2012-09-11T14:32:15Z</time>
      </trkpt>
      <trkpt lat="43.19878" lon="-0.37305">
        <ele>380.34</ele>
        <time>2012-09-11T14:32:24Z</time>
      </trkpt>
      <trkpt lat="43.19888" lon="-0.37307">
        <ele>379.86</ele>
        <time>2012-09-11T14:32:33Z</time>
      </trkpt>
      <trkpt lat="43.19898" lon="-0.37308">
        <ele>380.34</ele>
        <time>2012-09-11T14:32:42Z</time>
      </trkpt>
      <trkpt lat="43.19907" lon="-0.3731">
        <ele>379.86</ele>
        <time>2012-09-11T14:32:51Z</time>
      </trkpt>
      <trkpt lat="43.19916" lon="-0.37311">
        <ele>379.86</ele>
        <time>2012-09-11T14:33:00Z</time>
      </trkpt>
      <trkpt lat="43.19925" lon="-0.37312">
        <ele>379.38</ele>
        <time>2012-09-11T14:33:09Z</time>
      </trkpt>
      <trkpt lat="43.19934" lon="-0.37314">
        <ele>378.42</ele>
        <time>2012-09-11T14:33:19Z</time>
      </trkpt>
      <trkpt lat="43.19943" lon="-0.37314">
        <ele>377.45</ele>
        <time>2012-09-11T14:33:29Z</time>
      </trkpt>
      <trkpt lat="43.19953" lon="-0.37315">
        <ele>376.01</ele>
        <time>2012-09-11T14:33:39Z</time>
      </trkpt>
      <trkpt lat="43.19963" lon="-0.37316">
        <ele>375.05</ele>
        <time>2012-09-11T14:33:49Z</time>
      </trkpt>
      <trkpt lat="43.19973" lon="-0.37318">
        <ele>373.13</ele>
        <time>2012-09-11T14:34:00Z</time>
      </trkpt>
      <trkpt lat="43.19983" lon="-0.37316">
        <ele>371.69</ele>
        <time>2012-09-11T14:34:09Z</time>
      </trkpt>
      <trkpt lat="43.19991" lon="-0.37311">
        <ele>371.69</ele>
        <time>2012-09-11T14:34:17Z</time>
      </trkpt>
      <trkpt lat="43.19999" lon="-0.37306">
        <ele>370.73</ele>
        <time>2012-09-11T14:34:26Z</time>
      </trkpt>
      <trkpt lat="43.20007" lon="-0.37298">
        <ele>371.69</ele>
        <time>2012-09-11T14:34:34Z</time>
      </trkpt>
      <trkpt lat="43.20014" lon="-0.37291">
        <ele>371.21</ele>
        <time>2012-09-11T14:34:42Z</time>
      </trkpt>
      <trkpt lat="43.20022" lon="-0.37285">
        <ele>371.21</ele>
        <time>2012-09-11T14:34:49Z</time>
      </trkpt>
      <trkpt lat="43.20029" lon="-0.37277">
        <ele>371.21</ele>
        <time>2012-09-11T14:34:57Z</time>
      </trkpt>
      <trkpt lat="43.20037" lon="-0.37281">
        <ele>370.24</ele>
        <time>2012-09-11T14:35:07Z</time>
      </trkpt>
      <trkpt lat="43.20043" lon="-0.37292">
        <ele>369.76</ele>
        <time>2012-09-11T14:35:15Z</time>
      </trkpt>
      <trkpt lat="43.20049" lon="-0.37301">
        <ele>368.32</ele>
        <time>2012-09-11T14:35:24Z</time>
      </trkpt>
      <trkpt lat="43.20055" lon="-0.3731">
        <ele>366.88</ele>
        <time>2012-09-11T14:35:34Z</time>
      </trkpt>
      <trkpt lat="43.20063" lon="-0.37319">
        <ele>364</ele>
        <time>2012-09-11T14:35:43Z</time>
      </trkpt>
      <trkpt lat="43.20071" lon="-0.37321">
        <ele>363.52</ele>
        <time>2012-09-11T14:35:55Z</time>
      </trkpt>
      <trkpt lat="43.20082" lon="-0.37323">
        <ele>361.59</ele>
        <time>2012-09-11T14:36:09Z</time>
      </trkpt>
      <trkpt lat="43.20093" lon="-0.37324">
        <ele>360.63</ele>
        <time>2012-09-11T14:36:23Z</time>
      </trkpt>
      <trkpt lat="43.20104" lon="-0.37327">
        <ele>359.67</ele>
        <time>2012-09-11T14:36:37Z</time>
      </trkpt>
      <trkpt lat="43.20114" lon="-0.37335">
        <ele>358.23</ele>
        <time>2012-09-11T14:36:51Z</time>
      </trkpt>
      <trkpt lat="43.20123" lon="-0.37339">
        <ele>357.27</ele>
        <time>2012-09-11T14:37:03Z</time>
      </trkpt>
      <trkpt lat="43.20134" lon="-0.37348">
        <ele>356.31</ele>
        <time>2012-09-11T14:37:17Z</time>
      </trkpt>
      <trkpt lat="43.20142" lon="-0.37357">
        <ele>355.34</ele>
        <time>2012-09-11T14:37:29Z</time>
      </trkpt>
      <trkpt lat="43.20148" lon="-0.37365">
        <ele>355.34</ele>
        <time>2012-09-11T14:37:42Z</time>
      </trkpt>
      <trkpt lat="43.20155" lon="-0.37368">
        <ele>354.86</ele>
        <time>2012-09-11T14:40:12Z</time>
      </trkpt>
      <trkpt lat="43.20161" lon="-0.37364">
        <ele>355.83</ele>
        <time>2012-09-11T14:41:10Z</time>
      </trkpt>
      <trkpt lat="43.20174" lon="-0.37358">
        <ele>355.34</ele>
        <time>2012-09-11T14:41:22Z</time>
      </trkpt>
      <trkpt lat="43.20183" lon="-0.3735">
        <ele>354.38</ele>
        <time>2012-09-11T14:41:51Z</time>
      </trkpt>
      <trkpt lat="43.20192" lon="-0.3734">
        <ele>353.42</ele>
        <time>2012-09-11T14:42:03Z</time>
      </trkpt>
      <trkpt lat="43.20197" lon="-0.37327">
        <ele>352.46</ele>
        <time>2012-09-11T14:42:15Z</time>
      </trkpt>
      <trkpt lat="43.20204" lon="-0.37319">
        <ele>352.46</ele>
        <time>2012-09-11T14:42:25Z</time>
      </trkpt>
      <trkpt lat="43.20213" lon="-0.37326">
        <ele>349.1</ele>
        <time>2012-09-11T14:42:39Z</time>
      </trkpt>
      <trkpt lat="43.20223" lon="-0.37334">
        <ele>351.5</ele>
        <time>2012-09-11T14:43:15Z</time>
      </trkpt>
      <trkpt lat="43.20233" lon="-0.37337">
        <ele>351.02</ele>
        <time>2012-09-11T14:43:26Z</time>
      </trkpt>
      <trkpt lat="43.20239" lon="-0.37335">
        <ele>350.54</ele>
        <time>2012-09-11T14:43:38Z</time>
      </trkpt>
      <trkpt lat="43.20249" lon="-0.37329">
        <ele>351.5</ele>
        <time>2012-09-11T14:43:52Z</time>
      </trkpt>
      <trkpt lat="43.20258" lon="-0.37326">
        <ele>351.02</ele>
        <time>2012-09-11T14:44:04Z</time>
      </trkpt>
      <trkpt lat="43.20266" lon="-0.37327">
        <ele>350.06</ele>
        <time>2012-09-11T14:44:13Z</time>
      </trkpt>
      <trkpt lat="43.20276" lon="-0.37329">
        <ele>349.1</ele>
        <time>2012-09-11T14:44:24Z</time>
      </trkpt>
      <trkpt lat="43.20285" lon="-0.37333">
        <ele>346.69</ele>
        <time>2012-09-11T14:44:36Z</time>
      </trkpt>
      <trkpt lat="43.20293" lon="-0.37337">
        <ele>344.29</ele>
        <time>2012-09-11T14:44:48Z</time>
      </trkpt>
      <trkpt lat="43.20303" lon="-0.3734">
        <ele>340.92</ele>
        <time>2012-09-11T14:45:00Z</time>
      </trkpt>
      <trkpt lat="43.20312" lon="-0.37339">
        <ele>337.56</ele>
        <time>2012-09-11T14:45:11Z</time>
      </trkpt>
      <trkpt lat="43.20317" lon="-0.3733">
        <ele>336.6</ele>
        <time>2012-09-11T14:45:29Z</time>
      </trkpt>
      <trkpt lat="43.20321" lon="-0.37318">
        <ele>335.64</ele>
        <time>2012-09-11T14:45:50Z</time>
      </trkpt>
      <trkpt lat="43.20327" lon="-0.37308">
        <ele>335.64</ele>
        <time>2012-09-11T14:46:00Z</time>
      </trkpt>
      <trkpt lat="43.20331" lon="-0.37296">
        <ele>336.12</ele>
        <time>2012-09-11T14:46:11Z</time>
      </trkpt>
      <trkpt lat="43.20334" lon="-0.37282">
        <ele>336.6</ele>
        <time>2012-09-11T14:46:22Z</time>
      </trkpt>
      <trkpt lat="43.20336" lon="-0.3727">
        <ele>336.12</ele>
        <time>2012-09-11T14:46:31Z</time>
      </trkpt>
      <trkpt lat="43.20338" lon="-0.37258">
        <ele>336.12</ele>
        <time>2012-09-11T14:46:40Z</time>
      </trkpt>
      <trkpt lat="43.2034" lon="-0.37247">
        <ele>337.08</ele>
        <time>2012-09-11T14:46:50Z</time>
      </trkpt>
      <trkpt lat="43.20345" lon="-0.37236">
        <ele>337.08</ele>
        <time>2012-09-11T14:47:03Z</time>
      </trkpt>
      <trkpt lat="43.20354" lon="-0.37234">
        <ele>336.12</ele>
        <time>2012-09-11T14:47:13Z</time>
      </trkpt>
      <trkpt lat="43.20362" lon="-0.37233">
        <ele>334.68</ele>
        <time>2012-09-11T14:47:23Z</time>
      </trkpt>
      <trkpt lat="43.20373" lon="-0.37233">
        <ele>332.75</ele>
        <time>2012-09-11T14:47:33Z</time>
      </trkpt>
      <trkpt lat="43.20382" lon="-0.37234">
        <ele>330.83</ele>
        <time>2012-09-11T14:47:44Z</time>
      </trkpt>
      <trkpt lat="43.20392" lon="-0.37233">
        <ele>328.43</ele>
        <time>2012-09-11T14:47:55Z</time>
      </trkpt>
      <trkpt lat="43.20401" lon="-0.37228">
        <ele>325.54</ele>
        <time>2012-09-11T14:48:08Z</time>
      </trkpt>
      <trkpt lat="43.20407" lon="-0.37221">
        <ele>323.14</ele>
        <time>2012-09-11T14:48:22Z</time>
      </trkpt>
      <trkpt lat="43.20415" lon="-0.37217">
        <ele>319.78</ele>
        <time>2012-09-11T14:48:35Z</time>
      </trkpt>
      <trkpt lat="43.2042" lon="-0.37225">
        <ele>316.89</ele>
        <time>2012-09-11T14:48:56Z</time>
      </trkpt>
      <trkpt lat="43.20429" lon="-0.37231">
        <ele>314.49</ele>
        <time>2012-09-11T14:49:09Z</time>
      </trkpt>
      <trkpt lat="43.20437" lon="-0.37236">
        <ele>310.64</ele>
        <time>2012-09-11T14:49:24Z</time>
      </trkpt>
      <trkpt lat="43.2045" lon="-0.37237">
        <ele>307.28</ele>
        <time>2012-09-11T14:49:44Z</time>
      </trkpt>
      <trkpt lat="43.2046" lon="-0.37235">
        <ele>304.88</ele>
        <time>2012-09-11T14:49:55Z</time>
      </trkpt>
      <trkpt lat="43.20469" lon="-0.37229">
        <ele>303.43</ele>
        <time>2012-09-11T14:50:05Z</time>
      </trkpt>
      <trkpt lat="43.20476" lon="-0.37221">
        <ele>301.51</ele>
        <time>2012-09-11T14:50:16Z</time>
      </trkpt>
      <trkpt lat="43.20485" lon="-0.37215">
        <ele>300.55</ele>
        <time>2012-09-11T14:50:26Z</time>
      </trkpt>
      <trkpt lat="43.20493" lon="-0.37215">
        <ele>298.15</ele>
        <time>2012-09-11T14:50:36Z</time>
      </trkpt>
      <trkpt lat="43.20498" lon="-0.37225">
        <ele>297.18</ele>
        <time>2012-09-11T14:50:45Z</time>
      </trkpt>
      <trkpt lat="43.20504" lon="-0.37235">
        <ele>297.18</ele>
        <time>2012-09-11T14:50:56Z</time>
      </trkpt>
      <trkpt lat="43.20511" lon="-0.37241">
        <ele>295.74</ele>
        <time>2012-09-11T14:51:08Z</time>
      </trkpt>
      <trkpt lat="43.20519" lon="-0.37248">
        <ele>294.3</ele>
        <time>2012-09-11T14:51:20Z</time>
      </trkpt>
      <trkpt lat="43.20528" lon="-0.37254">
        <ele>293.34</ele>
        <time>2012-09-11T14:51:29Z</time>
      </trkpt>
      <trkpt lat="43.20537" lon="-0.37254">
        <ele>292.38</ele>
        <time>2012-09-11T14:51:37Z</time>
      </trkpt>
      <trkpt lat="43.20547" lon="-0.37259">
        <ele>291.42</ele>
        <time>2012-09-11T14:51:45Z</time>
      </trkpt>
      <trkpt lat="43.20556" lon="-0.37261">
        <ele>289.97</ele>
        <time>2012-09-11T14:51:54Z</time>
      </trkpt>
      <trkpt lat="43.20566" lon="-0.37258">
        <ele>288.53</ele>
        <time>2012-09-11T14:52:04Z</time>
      </trkpt>
      <trkpt lat="43.20573" lon="-0.37249">
        <ele>288.05</ele>
        <time>2012-09-11T14:52:12Z</time>
      </trkpt>
      <trkpt lat="43.20572" lon="-0.37237">
        <ele>287.57</ele>
        <time>2012-09-11T14:52:21Z</time>
      </trkpt>
      <trkpt lat="43.20571" lon="-0.37226">
        <ele>287.09</ele>
        <time>2012-09-11T14:52:32Z</time>
      </trkpt>
      <trkpt lat="43.20575" lon="-0.37215">
        <ele>286.61</ele>
        <time>2012-09-11T14:52:42Z</time>
      </trkpt>
      <trkpt lat="43.20579" lon="-0.37206">
        <ele>285.17</ele>
        <time>2012-09-11T14:52:52Z</time>
      </trkpt>
      <trkpt lat="43.20585" lon="-0.37201">
        <ele>283.25</ele>
        <time>2012-09-11T14:53:04Z</time>
      </trkpt>
      <trkpt lat="43.20593" lon="-0.37206">
        <ele>280.84</ele>
        <time>2012-09-11T14:53:50Z</time>
      </trkpt>
      <trkpt lat="43.20601" lon="-0.37205">
        <ele>278.92</ele>
        <time>2012-09-11T14:55:18Z</time>
      </trkpt>
      <trkpt lat="43.20612" lon="-0.37202">
        <ele>277</ele>
        <time>2012-09-11T14:55:30Z</time>
      </trkpt>
      <trkpt lat="43.20621" lon="-0.37199">
        <ele>275.56</ele>
        <time>2012-09-11T14:55:39Z</time>
      </trkpt>
      <trkpt lat="43.2063" lon="-0.37196">
        <ele>274.11</ele>
        <time>2012-09-11T14:55:47Z</time>
      </trkpt>
      <trkpt lat="43.2064" lon="-0.37194">
        <ele>272.19</ele>
        <time>2012-09-11T14:55:57Z</time>
      </trkpt>
      <trkpt lat="43.20649" lon="-0.37193">
        <ele>270.75</ele>
        <time>2012-09-11T14:56:07Z</time>
      </trkpt>
      <trkpt lat="43.20658" lon="-0.37192">
        <ele>268.35</ele>
        <time>2012-09-11T14:56:17Z</time>
      </trkpt>
      <trkpt lat="43.20668" lon="-0.37191">
        <ele>266.9</ele>
        <time>2012-09-11T14:56:27Z</time>
      </trkpt>
      <trkpt lat="43.20677" lon="-0.37192">
        <ele>265.46</ele>
        <time>2012-09-11T14:56:38Z</time>
      </trkpt>
      <trkpt lat="43.20687" lon="-0.37192">
        <ele>264.02</ele>
        <time>2012-09-11T14:56:48Z</time>
      </trkpt>
      <trkpt lat="43.20695" lon="-0.3719">
        <ele>263.06</ele>
        <time>2012-09-11T14:58:21Z</time>
      </trkpt>
      <trkpt lat="43.20703" lon="-0.37195">
        <ele>263.06</ele>
        <time>2012-09-11T14:58:36Z</time>
      </trkpt>
      <trkpt lat="43.20713" lon="-0.37198">
        <ele>263.06</ele>
        <time>2012-09-11T14:58:45Z</time>
      </trkpt>
      <trkpt lat="43.2072" lon="-0.37201">
        <ele>262.58</ele>
        <time>2012-09-11T14:58:55Z</time>
      </trkpt>
      <trkpt lat="43.20732" lon="-0.37196">
        <ele>261.62</ele>
        <time>2012-09-11T14:59:07Z</time>
      </trkpt>
      <trkpt lat="43.20741" lon="-0.37193">
        <ele>260.17</ele>
        <time>2012-09-11T14:59:31Z</time>
      </trkpt>
      <trkpt lat="43.20756" lon="-0.37188">
        <ele>259.69</ele>
        <time>2012-09-11T14:59:42Z</time>
      </trkpt>
      <trkpt lat="43.20766" lon="-0.37186">
        <ele>258.25</ele>
        <time>2012-09-11T14:59:59Z</time>
      </trkpt>
      <trkpt lat="43.20775" lon="-0.37186">
        <ele>257.77</ele>
        <time>2012-09-11T15:00:08Z</time>
      </trkpt>
      <trkpt lat="43.20786" lon="-0.37179">
        <ele>256.81</ele>
        <time>2012-09-11T15:00:19Z</time>
      </trkpt>
      <trkpt lat="43.20795" lon="-0.37174">
        <ele>256.81</ele>
        <time>2012-09-11T15:00:29Z</time>
      </trkpt>
      <trkpt lat="43.20807" lon="-0.37177">
        <ele>256.81</ele>
        <time>2012-09-11T15:00:40Z</time>
      </trkpt>
      <trkpt lat="43.20818" lon="-0.37178">
        <ele>257.29</ele>
        <time>2012-09-11T15:00:50Z</time>
      </trkpt>
      <trkpt lat="43.20828" lon="-0.3718">
        <ele>256.81</ele>
        <time>2012-09-11T15:01:02Z</time>
      </trkpt>
      <trkpt lat="43.20839" lon="-0.37183">
        <ele>256.81</ele>
        <time>2012-09-11T15:01:12Z</time>
      </trkpt>
      <trkpt lat="43.20851" lon="-0.37184">
        <ele>257.29</ele>
        <time>2012-09-11T15:01:22Z</time>
      </trkpt>
      <trkpt lat="43.2086" lon="-0.37185">
        <ele>256.81</ele>
        <time>2012-09-11T15:01:30Z</time>
      </trkpt>
      <trkpt lat="43.20871" lon="-0.37185">
        <ele>255.85</ele>
        <time>2012-09-11T15:01:39Z</time>
      </trkpt>
      <trkpt lat="43.20882" lon="-0.3719">
        <ele>254.89</ele>
        <time>2012-09-11T15:01:49Z</time>
      </trkpt>
      <trkpt lat="43.20885" lon="-0.372">
        <ele>253.93</ele>
        <time>2012-09-11T15:01:58Z</time>
      </trkpt>
      <trkpt lat="43.20889" lon="-0.37211">
        <ele>252.48</ele>
        <time>2012-09-11T15:02:08Z</time>
      </trkpt>
      <trkpt lat="43.20895" lon="-0.37223">
        <ele>252</ele>
        <time>2012-09-11T15:02:18Z</time>
      </trkpt>
      <trkpt lat="43.20903" lon="-0.37232">
        <ele>250.56</ele>
        <time>2012-09-11T15:02:36Z</time>
      </trkpt>
      <trkpt lat="43.20913" lon="-0.37241">
        <ele>250.08</ele>
        <time>2012-09-11T15:02:47Z</time>
      </trkpt>
      <trkpt lat="43.20923" lon="-0.37249">
        <ele>250.08</ele>
        <time>2012-09-11T15:02:58Z</time>
      </trkpt>
      <trkpt lat="43.2093" lon="-0.37256">
        <ele>249.12</ele>
        <time>2012-09-11T15:03:06Z</time>
      </trkpt>
      <trkpt lat="43.2094" lon="-0.37261">
        <ele>249.12</ele>
        <time>2012-09-11T15:03:15Z</time>
      </trkpt>
      <trkpt lat="43.20951" lon="-0.37266">
        <ele>248.64</ele>
        <time>2012-09-11T15:03:24Z</time>
      </trkpt>
      <trkpt lat="43.20961" lon="-0.37272">
        <ele>248.16</ele>
        <time>2012-09-11T15:03:33Z</time>
      </trkpt>
      <trkpt lat="43.20971" lon="-0.37278">
        <ele>248.16</ele>
        <time>2012-09-11T15:03:42Z</time>
      </trkpt>
      <trkpt lat="43.20981" lon="-0.37285">
        <ele>247.68</ele>
        <time>2012-09-11T15:03:51Z</time>
      </trkpt>
      <trkpt lat="43.20987" lon="-0.37298">
        <ele>247.2</ele>
        <time>2012-09-11T15:04:01Z</time>
      </trkpt>
      <trkpt lat="43.20992" lon="-0.3731">
        <ele>246.72</ele>
        <time>2012-09-11T15:04:12Z</time>
      </trkpt>
      <trkpt lat="43.21" lon="-0.37321">
        <ele>245.27</ele>
        <time>2012-09-11T15:04:22Z</time>
      </trkpt>
      <trkpt lat="43.21008" lon="-0.3733">
        <ele>244.79</ele>
        <time>2012-09-11T15:04:30Z</time>
      </trkpt>
      <trkpt lat="43.21014" lon="-0.37341">
        <ele>244.31</ele>
        <time>2012-09-11T15:04:38Z</time>
      </trkpt>
      <trkpt lat="43.21021" lon="-0.37352">
        <ele>244.31</ele>
        <time>2012-09-11T15:04:46Z</time>
      </trkpt>
      <trkpt lat="43.21028" lon="-0.37361">
        <ele>243.83</ele>
        <time>2012-09-11T15:04:55Z</time>
      </trkpt>
      <trkpt lat="43.21037" lon="-0.3737">
        <ele>243.35</ele>
        <time>2012-09-11T15:05:04Z</time>
      </trkpt>
      <trkpt lat="43.21044" lon="-0.37376">
        <ele>242.87</ele>
        <time>2012-09-11T15:05:20Z</time>
      </trkpt>
      <trkpt lat="43.21054" lon="-0.37388">
        <ele>241.91</ele>
        <time>2012-09-11T15:05:30Z</time>
      </trkpt>
      <trkpt lat="43.21063" lon="-0.37397">
        <ele>242.39</ele>
        <time>2012-09-11T15:05:40Z</time>
      </trkpt>
      <trkpt lat="43.2107" lon="-0.37405">
        <ele>243.83</ele>
        <time>2012-09-11T15:05:48Z</time>
      </trkpt>
      <trkpt lat="43.21076" lon="-0.37415">
        <ele>240.95</ele>
        <time>2012-09-11T15:05:57Z</time>
      </trkpt>
      <trkpt lat="43.21083" lon="-0.37425">
        <ele>240.47</ele>
        <time>2012-09-11T15:06:06Z</time>
      </trkpt>
      <trkpt lat="43.21092" lon="-0.37434">
        <ele>239.51</ele>
        <time>2012-09-11T15:06:16Z</time>
      </trkpt>
      <trkpt lat="43.21098" lon="-0.37442">
        <ele>239.99</ele>
        <time>2012-09-11T15:06:24Z</time>
      </trkpt>
      <trkpt lat="43.21107" lon="-0.37449">
        <ele>239.02</ele>
        <time>2012-09-11T15:06:33Z</time>
      </trkpt>
      <trkpt lat="43.21114" lon="-0.37463">
        <ele>239.02</ele>
        <time>2012-09-11T15:06:43Z</time>
      </trkpt>
      <trkpt lat="43.21116" lon="-0.37478">
        <ele>238.54</ele>
        <time>2012-09-11T15:06:53Z</time>
      </trkpt>
      <trkpt lat="43.21116" lon="-0.37493">
        <ele>238.06</ele>
        <time>2012-09-11T15:07:02Z</time>
      </trkpt>
      <trkpt lat="43.21117" lon="-0.37509">
        <ele>237.58</ele>
        <time>2012-09-11T15:07:11Z</time>
      </trkpt>
      <trkpt lat="43.21116" lon="-0.37522">
        <ele>237.1</ele>
        <time>2012-09-11T15:07:19Z</time>
      </trkpt>
      <trkpt lat="43.21112" lon="-0.37536">
        <ele>236.62</ele>
        <time>2012-09-11T15:07:28Z</time>
      </trkpt>
      <trkpt lat="43.21107" lon="-0.37548">
        <ele>236.14</ele>
        <time>2012-09-11T15:07:37Z</time>
      </trkpt>
      <trkpt lat="43.21104" lon="-0.37558">
        <ele>235.66</ele>
        <time>2012-09-11T15:07:46Z</time>
      </trkpt>
      <trkpt lat="43.21099" lon="-0.37566">
        <ele>235.18</ele>
        <time>2012-09-11T15:07:54Z</time>
      </trkpt>
      <trkpt lat="43.21094" lon="-0.37577">
        <ele>234.7</ele>
        <time>2012-09-11T15:08:03Z</time>
      </trkpt>
      <trkpt lat="43.21092" lon="-0.37595">
        <ele>234.22</ele>
        <time>2012-09-11T15:08:12Z</time>
      </trkpt>
      <trkpt lat="43.21093" lon="-0.37612">
        <ele>234.22</ele>
        <time>2012-09-11T15:08:20Z</time>
      </trkpt>
      <trkpt lat="43.21098" lon="-0.37627">
        <ele>234.22</ele>
        <time>2012-09-11T15:08:30Z</time>
      </trkpt>
      <trkpt lat="43.21101" lon="-0.37639">
        <ele>233.74</ele>
        <time>2012-09-11T15:08:40Z</time>
      </trkpt>
      <trkpt lat="43.21104" lon="-0.37651">
        <ele>233.74</ele>
        <time>2012-09-11T15:08:49Z</time>
      </trkpt>
      <trkpt lat="43.21106" lon="-0.37662">
        <ele>233.26</ele>
        <time>2012-09-11T15:08:57Z</time>
      </trkpt>
      <trkpt lat="43.21106" lon="-0.37673">
        <ele>232.78</ele>
        <time>2012-09-11T15:09:05Z</time>
      </trkpt>
      <trkpt lat="43.21104" lon="-0.37686">
        <ele>232.78</ele>
        <time>2012-09-11T15:09:14Z</time>
      </trkpt>
      <trkpt lat="43.21103" lon="-0.37701">
        <ele>232.3</ele>
        <time>2012-09-11T15:09:23Z</time>
      </trkpt>
      <trkpt lat="43.21103" lon="-0.37713">
        <ele>231.81</ele>
        <time>2012-09-11T15:09:31Z</time>
      </trkpt>
      <trkpt lat="43.21103" lon="-0.37726">
        <ele>231.81</ele>
        <time>2012-09-11T15:09:39Z</time>
      </trkpt>
      <trkpt lat="43.21101" lon="-0.3774">
        <ele>231.33</ele>
        <time>2012-09-11T15:09:47Z</time>
      </trkpt>
      <trkpt lat="43.21102" lon="-0.37753">
        <ele>231.33</ele>
        <time>2012-09-11T15:09:55Z</time>
      </trkpt>
      <trkpt lat="43.21104" lon="-0.37765">
        <ele>230.85</ele>
        <time>2012-09-11T15:10:04Z</time>
      </trkpt>
      <trkpt lat="43.21103" lon="-0.37782">
        <ele>230.37</ele>
        <time>2012-09-11T15:10:14Z</time>
      </trkpt>
      <trkpt lat="43.21103" lon="-0.37797">
        <ele>229.89</ele>
        <time>2012-09-11T15:10:22Z</time>
      </trkpt>
      <trkpt lat="43.21104" lon="-0.37811">
        <ele>228.93</ele>
        <time>2012-09-11T15:10:31Z</time>
      </trkpt>
      <trkpt lat="43.21105" lon="-0.37823">
        <ele>228.93</ele>
        <time>2012-09-11T15:10:41Z</time>
      </trkpt>
      <trkpt lat="43.21107" lon="-0.37841">
        <ele>227.97</ele>
        <time>2012-09-11T15:10:50Z</time>
      </trkpt>
      <trkpt lat="43.21107" lon="-0.37854">
        <ele>228.45</ele>
        <time>2012-09-11T15:10:58Z</time>
      </trkpt>
      <trkpt lat="43.2111" lon="-0.37866">
        <ele>227.49</ele>
        <time>2012-09-11T15:11:08Z</time>
      </trkpt>
      <trkpt lat="43.21115" lon="-0.37884">
        <ele>227.01</ele>
        <time>2012-09-11T15:11:18Z</time>
      </trkpt>
      <trkpt lat="43.21122" lon="-0.37896">
        <ele>226.05</ele>
        <time>2012-09-11T15:11:27Z</time>
      </trkpt>
      <trkpt lat="43.21132" lon="-0.37903">
        <ele>226.53</ele>
        <time>2012-09-11T15:11:36Z</time>
      </trkpt>
      <trkpt lat="43.21142" lon="-0.37911">
        <ele>226.05</ele>
        <time>2012-09-11T15:11:45Z</time>
      </trkpt>
      <trkpt lat="43.21148" lon="-0.37921">
        <ele>226.05</ele>
        <time>2012-09-11T15:11:54Z</time>
      </trkpt>
      <trkpt lat="43.21151" lon="-0.37929">
        <ele>226.53</ele>
        <time>2012-09-11T15:12:02Z</time>
      </trkpt>
      <trkpt lat="43.21156" lon="-0.37941">
        <ele>226.05</ele>
        <time>2012-09-11T15:12:11Z</time>
      </trkpt>
      <trkpt lat="43.21161" lon="-0.37952">
        <ele>226.05</ele>
        <time>2012-09-11T15:12:20Z</time>
      </trkpt>
      <trkpt lat="43.21167" lon="-0.37962">
        <ele>226.05</ele>
        <time>2012-09-11T15:12:29Z</time>
      </trkpt>
      <trkpt lat="43.21174" lon="-0.37971">
        <ele>225.09</ele>
        <time>2012-09-11T15:12:38Z</time>
      </trkpt>
      <trkpt lat="43.21181" lon="-0.37979">
        <ele>224.12</ele>
        <time>2012-09-11T15:12:47Z</time>
      </trkpt>
      <trkpt lat="43.21188" lon="-0.37988">
        <ele>224.12</ele>
        <time>2012-09-11T15:12:56Z</time>
      </trkpt>
      <trkpt lat="43.21198" lon="-0.37994">
        <ele>224.12</ele>
        <time>2012-09-11T15:13:05Z</time>
      </trkpt>
      <trkpt lat="43.21206" lon="-0.37997">
        <ele>223.16</ele>
        <time>2012-09-11T15:13:14Z</time>
      </trkpt>
      <trkpt lat="43.21216" lon="-0.38">
        <ele>222.68</ele>
        <time>2012-09-11T15:13:25Z</time>
      </trkpt>
      <trkpt lat="43.21225" lon="-0.38004">
        <ele>222.2</ele>
        <time>2012-09-11T15:13:35Z</time>
      </trkpt>
      <trkpt lat="43.21234" lon="-0.38009">
        <ele>221.72</ele>
        <time>2012-09-11T15:13:43Z</time>
      </trkpt>
      <trkpt lat="43.21243" lon="-0.38014">
        <ele>221.72</ele>
        <time>2012-09-11T15:13:52Z</time>
      </trkpt>
      <trkpt lat="43.21252" lon="-0.3802">
        <ele>221.24</ele>
        <time>2012-09-11T15:14:01Z</time>
      </trkpt>
      <trkpt lat="43.2126" lon="-0.38029">
        <ele>221.24</ele>
        <time>2012-09-11T15:14:10Z</time>
      </trkpt>
      <trkpt lat="43.21267" lon="-0.38036">
        <ele>220.76</ele>
        <time>2012-09-11T15:14:18Z</time>
      </trkpt>
      <trkpt lat="43.21275" lon="-0.38046">
        <ele>220.76</ele>
        <time>2012-09-11T15:14:27Z</time>
      </trkpt>
      <trkpt lat="43.21281" lon="-0.38059">
        <ele>220.28</ele>
        <time>2012-09-11T15:14:36Z</time>
      </trkpt>
      <trkpt lat="43.21286" lon="-0.38071">
        <ele>220.28</ele>
        <time>2012-09-11T15:14:45Z</time>
      </trkpt>
      <trkpt lat="43.21293" lon="-0.38079">
        <ele>219.8</ele>
        <time>2012-09-11T15:14:54Z</time>
      </trkpt>
      <trkpt lat="43.21299" lon="-0.3809">
        <ele>219.32</ele>
        <time>2012-09-11T15:15:03Z</time>
      </trkpt>
      <trkpt lat="43.21307" lon="-0.38097">
        <ele>219.32</ele>
        <time>2012-09-11T15:15:11Z</time>
      </trkpt>
      <trkpt lat="43.21315" lon="-0.38105">
        <ele>219.32</ele>
        <time>2012-09-11T15:15:20Z</time>
      </trkpt>
      <trkpt lat="43.21323" lon="-0.38113">
        <ele>218.36</ele>
        <time>2012-09-11T15:15:29Z</time>
      </trkpt>
      <trkpt lat="43.21333" lon="-0.38118">
        <ele>217.88</ele>
        <time>2012-09-11T15:15:38Z</time>
      </trkpt>
      <trkpt lat="43.21343" lon="-0.38119">
        <ele>217.88</ele>
        <time>2012-09-11T15:15:47Z</time>
      </trkpt>
      <trkpt lat="43.21353" lon="-0.38121">
        <ele>217.4</ele>
        <time>2012-09-11T15:15:56Z</time>
      </trkpt>
      <trkpt lat="43.21363" lon="-0.38122">
        <ele>217.4</ele>
        <time>2012-09-11T15:16:05Z</time>
      </trkpt>
      <trkpt lat="43.21372" lon="-0.38122">
        <ele>217.4</ele>
        <time>2012-09-11T15:16:13Z</time>
      </trkpt>
      <trkpt lat="43.21381" lon="-0.38123">
        <ele>217.4</ele>
        <time>2012-09-11T15:16:25Z</time>
      </trkpt>
      <trkpt lat="43.21391" lon="-0.38124">
        <ele>216.91</ele>
        <time>2012-09-11T15:16:33Z</time>
      </trkpt>
      <trkpt lat="43.214" lon="-0.38124">
        <ele>216.43</ele>
        <time>2012-09-11T15:16:41Z</time>
      </trkpt>
      <trkpt lat="43.21411" lon="-0.38126">
        <ele>215.95</ele>
        <time>2012-09-11T15:16:50Z</time>
      </trkpt>
      <trkpt lat="43.2142" lon="-0.38126">
        <ele>215.95</ele>
        <time>2012-09-11T15:16:58Z</time>
      </trkpt>
      <trkpt lat="43.21429" lon="-0.38128">
        <ele>216.43</ele>
        <time>2012-09-11T15:17:06Z</time>
      </trkpt>
      <trkpt lat="43.21439" lon="-0.38131">
        <ele>215.95</ele>
        <time>2012-09-11T15:17:15Z</time>
      </trkpt>
      <trkpt lat="43.21449" lon="-0.38131">
        <ele>215.95</ele>
        <time>2012-09-11T15:17:24Z</time>
      </trkpt>
      <trkpt lat="43.21459" lon="-0.38133">
        <ele>215.95</ele>
        <time>2012-09-11T15:17:33Z</time>
      </trkpt>
      <trkpt lat="43.21469" lon="-0.38134">
        <ele>215.47</ele>
        <time>2012-09-11T15:17:41Z</time>
      </trkpt>
      <trkpt lat="43.21478" lon="-0.38134">
        <ele>215.47</ele>
        <time>2012-09-11T15:17:50Z</time>
      </trkpt>
      <trkpt lat="43.21488" lon="-0.38136">
        <ele>214.99</ele>
        <time>2012-09-11T15:17:59Z</time>
      </trkpt>
      <trkpt lat="43.21497" lon="-0.38138">
        <ele>215.47</ele>
        <time>2012-09-11T15:18:08Z</time>
      </trkpt>
      <trkpt lat="43.21507" lon="-0.38141">
        <ele>214.99</ele>
        <time>2012-09-11T15:18:18Z</time>
      </trkpt>
      <trkpt lat="43.21517" lon="-0.38142">
        <ele>215.47</ele>
        <time>2012-09-11T15:18:27Z</time>
      </trkpt>
      <trkpt lat="43.21527" lon="-0.38143">
        <ele>215.47</ele>
        <time>2012-09-11T15:18:36Z</time>
      </trkpt>
      <trkpt lat="43.21537" lon="-0.38144">
        <ele>214.99</ele>
        <time>2012-09-11T15:18:45Z</time>
      </trkpt>
      <trkpt lat="43.21549" lon="-0.38146">
        <ele>214.51</ele>
        <time>2012-09-11T15:18:55Z</time>
      </trkpt>
      <trkpt lat="43.2156" lon="-0.38148">
        <ele>214.99</ele>
        <time>2012-09-11T15:19:06Z</time>
      </trkpt>
      <trkpt lat="43.21571" lon="-0.3815">
        <ele>214.51</ele>
        <time>2012-09-11T15:19:16Z</time>
      </trkpt>
      <trkpt lat="43.21582" lon="-0.38151">
        <ele>214.51</ele>
        <time>2012-09-11T15:19:26Z</time>
      </trkpt>
      <trkpt lat="43.21592" lon="-0.38152">
        <ele>214.51</ele>
        <time>2012-09-11T15:19:35Z</time>
      </trkpt>
      <trkpt lat="43.21603" lon="-0.38154">
        <ele>214.51</ele>
        <time>2012-09-11T15:19:45Z</time>
      </trkpt>
      <trkpt lat="43.21613" lon="-0.38155">
        <ele>214.51</ele>
        <time>2012-09-11T15:19:54Z</time>
      </trkpt>
      <trkpt lat="43.21623" lon="-0.38154">
        <ele>214.03</ele>
        <time>2012-09-11T15:20:03Z</time>
      </trkpt>
      <trkpt lat="43.21633" lon="-0.38154">
        <ele>214.51</ele>
        <time>2012-09-11T15:20:12Z</time>
      </trkpt>
      <trkpt lat="43.21643" lon="-0.38151">
        <ele>214.51</ele>
        <time>2012-09-11T15:20:21Z</time>
      </trkpt>
      <trkpt lat="43.21651" lon="-0.38145">
        <ele>214.03</ele>
        <time>2012-09-11T15:20:30Z</time>
      </trkpt>
      <trkpt lat="43.2166" lon="-0.38143">
        <ele>214.03</ele>
        <time>2012-09-11T15:20:39Z</time>
      </trkpt>
      <trkpt lat="43.21668" lon="-0.38139">
        <ele>214.03</ele>
        <time>2012-09-11T15:20:48Z</time>
      </trkpt>
      <trkpt lat="43.21674" lon="-0.38138">
        <ele>213.55</ele>
        <time>2012-09-11T15:21:40Z</time>
      </trkpt>
    </trkseg>
  </trk>
</gpx>